Observation data for Coyanosa on 02/13/2018      Previous  Date  Next       Current Mesonet Observations  Soil Data  Daily Summary Page  Observations in Plain Language
KCO1 130600Z 12013KT 06/M04 A3016 RMK A01 T00601037  RH  050%=      5-min Rain = 0
KCO1 130601Z 12014KT 06/M04 A3016 RMK A01 T00601037  RH  050%=      5-min Rain = 0
KCO1 130602Z 12013KT 06/M04 A3016 RMK A01 T00601037  RH  050%=      5-min Rain = 0
KCO1 130603Z 12016KT 06/M04 A3016 RMK A01 T00601037  RH  050%=      5-min Rain = 0
KCO1 130604Z 12015KT 06/M04 A3016 RMK A01 T00601037  RH  050%=      5-min Rain = 0
KCO1 130605Z 11014KT 06/M04 A3016 RMK A01 T00601037  RH  050%=      5-min Rain = 0
KCO1 130606Z 12014KT 06/M04 A3016 RMK A01 T00601037  RH  050%=      5-min Rain = 0
KCO1 130607Z 11011KT 06/M04 A3016 RMK A01 T00601037  RH  050%=      5-min Rain = 0
KCO1 130608Z 11011KT 06/M04 A3016 RMK A01 T00591038  RH  050%=      5-min Rain = 0
KCO1 130609Z 11011KT 06/M04 A3016 RMK A01 T00581038  RH  050%=      5-min Rain = 0
KCO1 130610Z 11012KT 06/M04 A3016 RMK A01 T00581038  RH  050%=      5-min Rain = 0
KCO1 130611Z 11012KT 06/M04 A3017 RMK A01 T00581037  RH  050%=      5-min Rain = 0
KCO1 130612Z 12013KT 06/M04 A3016 RMK A01 T00581037  RH  051%=      5-min Rain = 0
KCO1 130613Z 11011KT 06/M04 A3017 RMK A01 T00581037  RH  051%=      5-min Rain = 0
KCO1 130614Z 12011KT 06/M04 A3017 RMK A01 T00581037  RH  051%=      5-min Rain = 0
KCO1 130615Z 12013KT 06/M04 A3017 RMK A01 T00581037  RH  051%=      5-min Rain = 0
KCO1 130616Z 12013KT 06/M04 A3017 RMK A01 T00581037  RH  051%=      5-min Rain = 0
KCO1 130617Z 11012KT 06/M04 A3017 RMK A01 T00581037  RH  051%=      5-min Rain = 0
KCO1 130618Z 12014KT 06/M04 A3017 RMK A01 T00571037  RH  051%=      5-min Rain = 0
KCO1 130619Z 12012KT 06/M04 A3017 RMK A01 T00581037  RH  051%=      5-min Rain = 0
KCO1 130620Z 11013KT 06/M04 A3017 RMK A01 T00571037  RH  051%=      5-min Rain = 0
KCO1 130621Z 11015KT 06/M04 A3017 RMK A01 T00571037  RH  051%=      5-min Rain = 0
KCO1 130622Z 12014KT 06/M04 A3017 RMK A01 T00571037  RH  051%=      5-min Rain = 0
KCO1 130623Z 12011KT 06/M04 A3017 RMK A01 T00571037  RH  051%=      5-min Rain = 0
KCO1 130624Z 12011KT 06/M04 A3017 RMK A01 T00571037  RH  051%=      5-min Rain = 0
KCO1 130625Z 12013KT 06/M04 A3017 RMK A01 T00561037  RH  051%=      5-min Rain = 0
KCO1 130626Z 12012KT 06/M04 A3017 RMK A01 T00561037  RH  051%=      5-min Rain = 0
KCO1 130627Z 12014KT 06/M04 A3017 RMK A01 T00561037  RH  051%=      5-min Rain = 0
KCO1 130628Z 12013KT 06/M04 A3017 RMK A01 T00561037  RH  051%=      5-min Rain = 0
KCO1 130629Z 12013KT 06/M04 A3017 RMK A01 T00561037  RH  051%=      5-min Rain = 0
KCO1 130630Z 12013KT 06/M04 A3017 RMK A01 T00561037  RH  051%=      5-min Rain = 0
KCO1 130631Z 12011KT 06/M04 A3017 RMK A01 T00561037  RH  051%=      5-min Rain = 0
KCO1 130632Z 12013KT 06/M04 A3017 RMK A01 T00551037  RH  051%=      5-min Rain = 0
KCO1 130633Z 11013KT 06/M04 A3017 RMK A01 T00551037  RH  052%=      5-min Rain = 0
KCO1 130634Z 12013KT 06/M04 A3017 RMK A01 T00551037  RH  052%=      5-min Rain = 0
KCO1 130635Z 12013KT 06/M04 A3017 RMK A01 T00551036  RH  052%=      5-min Rain = 0
KCO1 130636Z 12014KT 06/M04 A3017 RMK A01 T00551037  RH  052%=      5-min Rain = 0
KCO1 130637Z 12014KT 06/M04 A3017 RMK A01 T00551036  RH  052%=      5-min Rain = 0
KCO1 130638Z 11013KT 06/M04 A3017 RMK A01 T00551036  RH  052%=      5-min Rain = 0
KCO1 130639Z 12012KT 06/M04 A3017 RMK A01 T00551036  RH  052%=      5-min Rain = 0
KCO1 130640Z 12013KT 05/M04 A3017 RMK A01 T00541037  RH  052%=      5-min Rain = 0
KCO1 130641Z 12012KT 06/M04 A3017 RMK A01 T00551036  RH  052%=      5-min Rain = 0
KCO1 130642Z 12013KT 05/M04 A3017 RMK A01 T00541036  RH  052%=      5-min Rain = 0
KCO1 130643Z 11012KT 05/M04 A3017 RMK A01 T00541036  RH  052%=      5-min Rain = 0
KCO1 130644Z 12014KT 05/M04 A3017 RMK A01 T00541036  RH  052%=      5-min Rain = 0
KCO1 130645Z 11012KT 05/M04 A3017 RMK A01 T00541036  RH  052%=      5-min Rain = 0
KCO1 130646Z 11013KT 05/M04 A3017 RMK A01 T00541036  RH  052%=      5-min Rain = 0
KCO1 130647Z 11012KT 05/M04 A3017 RMK A01 T00541036  RH  052%=      5-min Rain = 0
KCO1 130648Z 11014KT 05/M04 A3017 RMK A01 T00541036  RH  052%=      5-min Rain = 0
KCO1 130649Z 11012KT 05/M04 A3017 RMK A01 T00541036  RH  052%=      5-min Rain = 0
KCO1 130650Z 11013KT 05/M04 A3017 RMK A01 T00541036  RH  052%=      5-min Rain = 0
KCO1 130651Z 11010KT 05/M04 A3017 RMK A01 T00541036  RH  052%=      5-min Rain = 0
KCO1 130652Z 11012KT 05/M04 A3017 RMK A01 T00541036  RH  052%=      5-min Rain = 0
KCO1 130653Z 11012KT 05/M04 A3017 RMK A01 T00531036  RH  053%=      5-min Rain = 0
KCO1 130654Z 11012KT 05/M04 A3017 RMK A01 T00531035  RH  053%=      5-min Rain = 0
KCO1 130655Z 11012KT 05/M04 A3017 RMK A01 T00531036  RH  053%=      5-min Rain = 0
KCO1 130656Z 11011KT 05/M04 A3017 RMK A01 T00531035  RH  053%=      5-min Rain = 0
KCO1 130657Z 11011KT 05/M04 A3017 RMK A01 T00531035  RH  053%=      5-min Rain = 0
KCO1 130658Z 11012KT 05/M04 A3017 RMK A01 T00531035  RH  053%=      5-min Rain = 0
KCO1 130659Z 11013KT 05/M04 A3017 RMK A01 T00531035  RH  053%=      5-min Rain = 0
KCO1 130700Z 12012KT 05/M04 A3017 RMK A01 T00531035  RH  053%=      5-min Rain = 0
KCO1 130701Z 11011KT 05/M04 A3017 RMK A01 T00531035  RH  053%=      5-min Rain = 0
KCO1 130702Z 12011KT 05/M04 A3017 RMK A01 T00521035  RH  053%=      5-min Rain = 0
KCO1 130703Z 11010KT 05/M04 A3017 RMK A01 T00521035  RH  053%=      5-min Rain = 0
KCO1 130704Z 12011KT 05/M04 A3017 RMK A01 T00521035  RH  053%=      5-min Rain = 0
KCO1 130705Z 11012KT 05/M04 A3017 RMK A01 T00521035  RH  053%=      5-min Rain = 0
KCO1 130706Z 11010KT 05/M04 A3017 RMK A01 T00521035  RH  054%=      5-min Rain = 0
KCO1 130707Z 11012KT 05/M04 A3017 RMK A01 T00521035  RH  054%=      5-min Rain = 0
KCO1 130708Z 11010KT 05/M04 A3018 RMK A01 T00521035  RH  054%=      5-min Rain = 0
KCO1 130709Z 11012KT 05/M04 A3018 RMK A01 T00521035  RH  054%=      5-min Rain = 0
KCO1 130710Z 11012KT 05/M04 A3018 RMK A01 T00511035  RH  054%=      5-min Rain = 0
KCO1 130711Z 11010KT 05/M04 A3018 RMK A01 T00511035  RH  054%=      5-min Rain = 0
KCO1 130712Z 11012KT 05/M04 A3018 RMK A01 T00511035  RH  054%=      5-min Rain = 0
KCO1 130713Z 11012KT 05/M04 A3017 RMK A01 T00511035  RH  054%=      5-min Rain = 0
KCO1 130714Z 11012KT 05/M04 A3017 RMK A01 T00511035  RH  054%=      5-min Rain = 0
KCO1 130715Z 11012KT 05/M04 A3017 RMK A01 T00511035  RH  054%=      5-min Rain = 0
KCO1 130716Z 11012KT 05/M03 A3018 RMK A01 T00511034  RH  054%=      5-min Rain = 0
KCO1 130717Z 11012KT 05/M03 A3018 RMK A01 T00511034  RH  054%=      5-min Rain = 0
KCO1 130718Z 11011KT 05/M04 A3018 RMK A01 T00511035  RH  054%=      5-min Rain = 0
KCO1 130719Z 11010KT 05/M04 A3018 RMK A01 T00511035  RH  054%=      5-min Rain = 0
KCO1 130720Z 11012KT 05/M04 A3018 RMK A01 T00511035  RH  054%=      5-min Rain = 0
KCO1 130721Z 11011KT 05/M03 A3018 RMK A01 T00501034  RH  054%=      5-min Rain = 0
KCO1 130722Z 11011KT 05/M03 A3018 RMK A01 T00501034  RH  054%=      5-min Rain = 0
KCO1 130723Z 11011KT 05/M03 A3018 RMK A01 T00501034  RH  054%=      5-min Rain = 0
KCO1 130724Z 12012KT 05/M03 A3018 RMK A01 T00501034  RH  055%=      5-min Rain = 0
KCO1 130725Z 11012KT 05/M03 A3018 RMK A01 T00491034  RH  055%=      5-min Rain = 0
KCO1 130726Z 12012KT 05/M03 A3018 RMK A01 T00491034  RH  055%=      5-min Rain = 0
KCO1 130727Z 12013KT 05/M03 A3018 RMK A01 T00501033  RH  055%=      5-min Rain = 0
KCO1 130728Z 12012KT 05/M03 A3018 RMK A01 T00501034  RH  055%=      5-min Rain = 0
KCO1 130729Z 11013KT 05/M03 A3018 RMK A01 T00501034  RH  055%=      5-min Rain = 0
KCO1 130730Z 11011KT 05/M03 A3018 RMK A01 T00501033  RH  055%=      5-min Rain = 0
KCO1 130731Z 11011KT 05/M03 A3018 RMK A01 T00501033  RH  055%=      5-min Rain = 0
KCO1 130732Z 11012KT 05/M03 A3018 RMK A01 T00501034  RH  055%=      5-min Rain = 0
KCO1 130733Z 11010KT 05/M03 A3017 RMK A01 T00501034  RH  055%=      5-min Rain = 0
KCO1 130734Z 11010KT 05/M03 A3017 RMK A01 T00491034  RH  055%=      5-min Rain = 0
KCO1 130735Z 11009KT 05/M03 A3018 RMK A01 T00491034  RH  055%=      5-min Rain = 0
KCO1 130736Z 11011KT 05/M03 A3018 RMK A01 T00491034  RH  055%=      5-min Rain = 0
KCO1 130737Z 11009KT 05/M03 A3018 RMK A01 T00481034  RH  055%=      5-min Rain = 0
KCO1 130738Z 11011KT 05/M03 A3018 RMK A01 T00481034  RH  055%=      5-min Rain = 0
KCO1 130739Z 11010KT 05/M03 A3018 RMK A01 T00481034  RH  055%=      5-min Rain = 0
KCO1 130740Z 11010KT 05/M03 A3018 RMK A01 T00481034  RH  055%=      5-min Rain = 0
KCO1 130741Z 11010KT 05/M03 A3018 RMK A01 T00481034  RH  055%=      5-min Rain = 0
KCO1 130742Z 11011KT 05/M03 A3018 RMK A01 T00481034  RH  055%=      5-min Rain = 0
KCO1 130743Z 11010KT 05/M03 A3018 RMK A01 T00481034  RH  055%=      5-min Rain = 0
KCO1 130744Z 11011KT 05/M03 A3018 RMK A01 T00471034  RH  056%=      5-min Rain = 0
KCO1 130745Z 11011G16KT 05/M03 A3018 RMK A01 T00471034  RH  056%=      5-min Rain = 0
KCO1 130746Z 10012KT 05/M03 A3018 RMK A01 T00471034  RH  056%=      5-min Rain = 0
KCO1 130747Z 11011KT 05/M03 A3018 RMK A01 T00471034  RH  055%=      5-min Rain = 0
KCO1 130748Z 11010KT 05/M03 A3018 RMK A01 T00481034  RH  055%=      5-min Rain = 0
KCO1 130749Z 11009KT 05/M04 A3018 RMK A01 T00481035  RH  055%=      5-min Rain = 0
KCO1 130750Z 11009KT 05/M04 A3018 RMK A01 T00471035  RH  055%=      5-min Rain = 0
KCO1 130751Z 11010KT 05/M04 A3018 RMK A01 T00461035  RH  055%=      5-min Rain = 0
KCO1 130752Z 11009KT 05/M04 A3018 RMK A01 T00461035  RH  056%=      5-min Rain = 0
KCO1 130753Z 11011KT 05/M04 A3018 RMK A01 T00461035  RH  056%=      5-min Rain = 0
KCO1 130754Z 11011KT 05/M04 A3018 RMK A01 T00461035  RH  056%=      5-min Rain = 0
KCO1 130755Z 11011KT 05/M04 A3018 RMK A01 T00461035  RH  056%=      5-min Rain = 0
KCO1 130756Z 11011KT 05/M04 A3018 RMK A01 T00461035  RH  056%=      5-min Rain = 0
KCO1 130757Z 11011KT 05/M04 A3018 RMK A01 T00461035  RH  056%=      5-min Rain = 0
KCO1 130758Z 11009KT 05/M04 A3018 RMK A01 T00461035  RH  055%=      5-min Rain = 0
KCO1 130759Z 11010KT 05/M04 A3018 RMK A01 T00461035  RH  055%=      5-min Rain = 0
KCO1 130800Z 11009KT 05/M04 A3018 RMK A01 T00461035  RH  056%=      5-min Rain = 0
KCO1 130801Z 11009KT 05/M04 A3018 RMK A01 T00461035  RH  056%=      5-min Rain = 0
KCO1 130802Z 11009KT 05/M04 A3018 RMK A01 T00451036  RH  056%=      5-min Rain = 0
KCO1 130803Z 11009KT 05/M04 A3018 RMK A01 T00451035  RH  056%=      5-min Rain = 0
KCO1 130804Z 11009KT 05/M04 A3018 RMK A01 T00451035  RH  056%=      5-min Rain = 0
KCO1 130805Z 11009KT 05/M04 A3018 RMK A01 T00451035  RH  056%=      5-min Rain = 0
KCO1 130806Z 11009KT 05/M04 A3018 RMK A01 T00451035  RH  056%=      5-min Rain = 0
KCO1 130807Z 11009KT 04/M04 A3018 RMK A01 T00441036  RH  056%=      5-min Rain = 0
KCO1 130808Z 11010KT 04/M04 A3018 RMK A01 T00441036  RH  056%=      5-min Rain = 0
KCO1 130809Z 11007KT 04/M04 A3018 RMK A01 T00441035  RH  056%=      5-min Rain = 0
KCO1 130810Z 11008KT 04/M04 A3018 RMK A01 T00441036  RH  056%=      5-min Rain = 0
KCO1 130811Z 11009KT 04/M04 A3018 RMK A01 T00431036  RH  056%=      5-min Rain = 0
KCO1 130812Z 11008KT 04/M04 A3018 RMK A01 T00431036  RH  056%=      5-min Rain = 0
KCO1 130813Z 11008KT 04/M04 A3018 RMK A01 T00421036  RH  057%=      5-min Rain = 0
KCO1 130814Z 11008KT 04/M04 A3018 RMK A01 T00421037  RH  057%=      5-min Rain = 0
KCO1 130815Z 11009KT 04/M04 A3018 RMK A01 T00411036  RH  057%=      5-min Rain = 0
KCO1 130816Z 11009KT 04/M04 A3018 RMK A01 T00411036  RH  057%=      5-min Rain = 0
KCO1 130817Z 11007KT 04/M04 A3018 RMK A01 T00411036  RH  057%=      5-min Rain = 0
KCO1 130818Z 11008KT 04/M04 A3018 RMK A01 T00421036  RH  057%=      5-min Rain = 0
KCO1 130819Z 11008KT 04/M04 A3018 RMK A01 T00411036  RH  057%=      5-min Rain = 0
KCO1 130820Z 11008KT 04/M04 A3018 RMK A01 T00411036  RH  057%=      5-min Rain = 0
KCO1 130821Z 11008KT 04/M04 A3018 RMK A01 T00411036  RH  057%=      5-min Rain = 0
KCO1 130822Z 11008KT 04/M04 A3018 RMK A01 T00411036  RH  057%=      5-min Rain = 0
KCO1 130823Z 11007KT 04/M04 A3018 RMK A01 T00401036  RH  057%=      5-min Rain = 0
KCO1 130824Z 11009KT 04/M04 A3018 RMK A01 T00401036  RH  058%=      5-min Rain = 0
KCO1 130825Z 10009KT 04/M04 A3018 RMK A01 T00401036  RH  058%=      5-min Rain = 0
KCO1 130826Z 11009KT 04/M04 A3018 RMK A01 T00401036  RH  058%=      5-min Rain = 0
KCO1 130827Z 11008KT 04/M04 A3018 RMK A01 T00401036  RH  058%=      5-min Rain = 0
KCO1 130828Z 11007KT 04/M04 A3018 RMK A01 T00401036  RH  058%=      5-min Rain = 0
KCO1 130829Z 10008KT 04/M04 A3018 RMK A01 T00391036  RH  058%=      5-min Rain = 0
KCO1 130830Z 11008KT 04/M04 A3018 RMK A01 T00391036  RH  058%=      5-min Rain = 0
KCO1 130831Z 10008KT 04/M04 A3018 RMK A01 T00391036  RH  058%=      5-min Rain = 0
KCO1 130832Z 11007KT 04/M04 A3018 RMK A01 T00391036  RH  058%=      5-min Rain = 0
KCO1 130833Z 10006KT 04/M04 A3018 RMK A01 T00391036  RH  058%=      5-min Rain = 0
KCO1 130834Z 11007KT 04/M04 A3018 RMK A01 T00391036  RH  058%=      5-min Rain = 0
KCO1 130835Z 11007KT 04/M04 A3018 RMK A01 T00391036  RH  058%=      5-min Rain = 0
KCO1 130836Z 11007KT 04/M04 A3018 RMK A01 T00381036  RH  058%=      5-min Rain = 0
KCO1 130837Z 11007KT 04/M04 A3018 RMK A01 T00391036  RH  058%=      5-min Rain = 0
KCO1 130838Z 11007KT 04/M04 A3018 RMK A01 T00381036  RH  058%=      5-min Rain = 0
KCO1 130839Z 11007KT 04/M04 A3018 RMK A01 T00381036  RH  058%=      5-min Rain = 0
KCO1 130840Z 11007KT 04/M04 A3018 RMK A01 T00381036  RH  059%=      5-min Rain = 0
KCO1 130841Z 11007KT 04/M04 A3018 RMK A01 T00371037  RH  059%=      5-min Rain = 0
KCO1 130842Z 11007KT 04/M04 A3018 RMK A01 T00371036  RH  059%=      5-min Rain = 0
KCO1 130843Z 12008KT 04/M04 A3018 RMK A01 T00371036  RH  059%=      5-min Rain = 0
KCO1 130844Z 11008KT 04/M04 A3018 RMK A01 T00361037  RH  059%=      5-min Rain = 0
KCO1 130845Z 11007KT 04/M04 A3018 RMK A01 T00361036  RH  059%=      5-min Rain = 0
KCO1 130846Z 12007KT 04/M04 A3018 RMK A01 T00361036  RH  059%=      5-min Rain = 0
KCO1 130847Z 12007KT 04/M04 A3018 RMK A01 T00361037  RH  059%=      5-min Rain = 0
KCO1 130848Z 11007KT 04/M04 A3018 RMK A01 T00351037  RH  059%=      5-min Rain = 0
KCO1 130849Z 12007KT 04/M04 A3018 RMK A01 T00351037  RH  059%=      5-min Rain = 0
KCO1 130850Z 12005KT 04/M04 A3018 RMK A01 T00351037  RH  059%=      5-min Rain = 0
KCO1 130851Z 12006KT 04/M04 A3018 RMK A01 T00351037  RH  060%=      5-min Rain = 0
KCO1 130852Z 12006KT 03/M04 A3018 RMK A01 T00341037  RH  060%=      5-min Rain = 0
KCO1 130853Z 12006KT 03/M04 A3018 RMK A01 T00341037  RH  060%=      5-min Rain = 0
KCO1 130854Z 11006KT 03/M04 A3018 RMK A01 T00341037  RH  060%=      5-min Rain = 0
KCO1 130855Z 11006KT 03/M04 A3018 RMK A01 T00341037  RH  060%=      5-min Rain = 0
KCO1 130856Z 11006KT 03/M04 A3018 RMK A01 T00341037  RH  060%=      5-min Rain = 0
KCO1 130857Z 11005KT 03/M04 A3019 RMK A01 T00341037  RH  060%=      5-min Rain = 0
KCO1 130858Z 11005KT 03/M04 A3019 RMK A01 T00341037  RH  060%=      5-min Rain = 0
KCO1 130859Z 11005KT 03/M04 A3019 RMK A01 T00341037  RH  060%=      5-min Rain = 0
KCO1 130900Z 11005KT 03/M04 A3019 RMK A01 T00331037  RH  060%=      5-min Rain = 0
KCO1 130901Z 11004KT 03/M04 A3019 RMK A01 T00331037  RH  060%=      5-min Rain = 0
KCO1 130902Z 11004KT 03/M04 A3019 RMK A01 T00331037  RH  060%=      5-min Rain = 0
KCO1 130903Z 11004KT 03/M04 A3019 RMK A01 T00321037  RH  060%=      5-min Rain = 0
KCO1 130904Z 11005KT 03/M04 A3019 RMK A01 T00321037  RH  060%=      5-min Rain = 0
KCO1 130905Z 11005KT 03/M04 A3019 RMK A01 T00311038  RH  060%=      5-min Rain = 0
KCO1 130906Z 11005KT 03/M04 A3019 RMK A01 T00311038  RH  061%=      5-min Rain = 0
KCO1 130907Z 11005KT 03/M04 A3019 RMK A01 T00311038  RH  061%=      5-min Rain = 0
KCO1 130908Z 11005KT 03/M04 A3019 RMK A01 T00301038  RH  061%=      5-min Rain = 0
KCO1 130909Z 11005KT 03/M04 A3019 RMK A01 T00301038  RH  061%=      5-min Rain = 0
KCO1 130910Z 10005KT 03/M04 A3019 RMK A01 T00291038  RH  061%=      5-min Rain = 0
KCO1 130911Z 10005KT 03/M04 A3019 RMK A01 T00291038  RH  061%=      5-min Rain = 0
KCO1 130912Z 10005KT 03/M04 A3019 RMK A01 T00281039  RH  061%=      5-min Rain = 0
KCO1 130913Z 10004KT 03/M04 A3019 RMK A01 T00271039  RH  062%=      5-min Rain = 0
KCO1 130914Z 10004KT 03/M04 A3019 RMK A01 T00271039  RH  062%=      5-min Rain = 0
KCO1 130915Z 10005KT 03/M04 A3019 RMK A01 T00261039  RH  062%=      5-min Rain = 0
KCO1 130916Z 09005KT 03/M04 A3019 RMK A01 T00261039  RH  062%=      5-min Rain = 0
KCO1 130917Z 09006KT 03/M04 A3019 RMK A01 T00261039  RH  062%=      5-min Rain = 0
KCO1 130918Z 09005KT 03/M04 A3019 RMK A01 T00261039  RH  062%=      5-min Rain = 0
KCO1 130919Z 09005KT 03/M04 A3019 RMK A01 T00251039  RH  063%=      5-min Rain = 0
KCO1 130920Z 09005KT 03/M04 A3019 RMK A01 T00251039  RH  063%=      5-min Rain = 0
KCO1 130921Z 09005KT 03/M04 A3019 RMK A01 T00251038  RH  063%=      5-min Rain = 0
KCO1 130922Z 09005KT 03/M04 A3019 RMK A01 T00251039  RH  063%=      5-min Rain = 0
KCO1 130923Z 08005KT 03/M04 A3019 RMK A01 T00261038  RH  063%=      5-min Rain = 0
KCO1 130924Z 09005KT 03/M04 A3019 RMK A01 T00251039  RH  063%=      5-min Rain = 0
KCO1 130925Z 09005KT 03/M04 A3019 RMK A01 T00261039  RH  063%=      5-min Rain = 0
KCO1 130926Z 09005KT 03/M04 A3019 RMK A01 T00251039  RH  063%=      5-min Rain = 0
KCO1 130927Z 10006KT 02/M04 A3019 RMK A01 T00241039  RH  063%=      5-min Rain = 0
KCO1 130928Z 10006KT 02/M04 A3019 RMK A01 T00241039  RH  063%=      5-min Rain = 0
KCO1 130929Z 09006KT 02/M04 A3019 RMK A01 T00241039  RH  063%=      5-min Rain = 0
KCO1 130930Z 10005KT 02/M04 A3019 RMK A01 T00231039  RH  063%=      5-min Rain = 0
KCO1 130931Z 09005KT 02/M04 A3019 RMK A01 T00231039  RH  063%=      5-min Rain = 0
KCO1 130932Z 09004KT 02/M04 A3019 RMK A01 T00231039  RH  063%=      5-min Rain = 0
KCO1 130933Z 09004KT 02/M04 A3019 RMK A01 T00231039  RH  063%=      5-min Rain = 0
KCO1 130934Z 09004KT 02/M04 A3019 RMK A01 T00231039  RH  064%=      5-min Rain = 0
KCO1 130935Z 08004KT 02/M04 A3019 RMK A01 T00231039  RH  064%=      5-min Rain = 0
KCO1 130936Z 09004KT 02/M04 A302 RMK A01 T00231039  RH  064%=      5-min Rain = 0
KCO1 130937Z 09004KT 02/M04 A302 RMK A01 T00231039  RH  064%=      5-min Rain = 0
KCO1 130938Z 09005KT 02/M04 A302 RMK A01 T00221039  RH  064%=      5-min Rain = 0
KCO1 130939Z 08005KT 02/M04 A302 RMK A01 T00231039  RH  064%=      5-min Rain = 0
KCO1 130940Z 08004KT 02/M04 A302 RMK A01 T00231039  RH  064%=      5-min Rain = 0
KCO1 130941Z 09004KT 02/M04 A302 RMK A01 T00231039  RH  064%=      5-min Rain = 0
KCO1 130942Z 09004KT 02/M04 A302 RMK A01 T00231039  RH  064%=      5-min Rain = 0
KCO1 130943Z 09004KT 02/M04 A302 RMK A01 T00231039  RH  064%=      5-min Rain = 0
KCO1 130944Z 09005KT 02/M04 A302 RMK A01 T00221039  RH  064%=      5-min Rain = 0
KCO1 130945Z 10005KT 02/M04 A302 RMK A01 T00221039  RH  064%=      5-min Rain = 0
KCO1 130946Z 10005KT 02/M04 A302 RMK A01 T00221039  RH  064%=      5-min Rain = 0
KCO1 130947Z 09005KT 02/M04 A302 RMK A01 T00221039  RH  064%=      5-min Rain = 0
KCO1 130948Z 09005KT 02/M04 A302 RMK A01 T00211040  RH  064%=      5-min Rain = 0
KCO1 130949Z 09006KT 02/M04 A302 RMK A01 T00211040  RH  064%=      5-min Rain = 0
KCO1 130950Z 09006KT 02/M04 A302 RMK A01 T00201040  RH  064%=      5-min Rain = 0
KCO1 130951Z 09006KT 02/M04 A302 RMK A01 T00201040  RH  064%=      5-min Rain = 0
KCO1 130952Z 09006KT 02/M04 A302 RMK A01 T00211039  RH  065%=      5-min Rain = 0
KCO1 130953Z 09006KT 02/M04 A302 RMK A01 T00211039  RH  065%=      5-min Rain = 0
KCO1 130954Z 09006KT 02/M04 A302 RMK A01 T00211039  RH  065%=      5-min Rain = 0
KCO1 130955Z 09006KT 02/M04 A302 RMK A01 T00211039  RH  065%=      5-min Rain = 0
KCO1 130956Z 09006KT 02/M04 A302 RMK A01 T00201039  RH  065%=      5-min Rain = 0
KCO1 130957Z 09005KT 02/M04 A302 RMK A01 T00201039  RH  065%=      5-min Rain = 0
KCO1 130958Z 09006KT 02/M04 A302 RMK A01 T00201039  RH  065%=      5-min Rain = 0
KCO1 130959Z 09006KT 02/M04 A302 RMK A01 T00201039  RH  065%=      5-min Rain = 0
KCO1 131000Z 09006KT 02/M04 A302 RMK A01 T00201039  RH  065%=      5-min Rain = 0
KCO1 131001Z 09007KT 02/M04 A302 RMK A01 T00201039  RH  065%=      5-min Rain = 0
KCO1 131002Z 09007KT 02/M04 A302 RMK A01 T00201039  RH  065%=      5-min Rain = 0
KCO1 131003Z 09007KT 02/M04 A302 RMK A01 T00201039  RH  065%=      5-min Rain = 0
KCO1 131004Z 09006KT 02/M04 A302 RMK A01 T00201038  RH  065%=      5-min Rain = 0
KCO1 131005Z 09006KT 02/M04 A302 RMK A01 T00201038  RH  065%=      5-min Rain = 0
KCO1 131006Z 09006KT 02/M04 A302 RMK A01 T00191038  RH  065%=      5-min Rain = 0
KCO1 131007Z 09006KT 02/M04 A302 RMK A01 T00201038  RH  065%=      5-min Rain = 0
KCO1 131008Z 09007KT 02/M04 A302 RMK A01 T00191039  RH  065%=      5-min Rain = 0
KCO1 131009Z 09007KT 02/M04 A302 RMK A01 T00201038  RH  065%=      5-min Rain = 0
KCO1 131010Z 09006KT 02/M04 A302 RMK A01 T00201038  RH  066%=      5-min Rain = 0
KCO1 131011Z 09007KT 02/M04 A302 RMK A01 T00201038  RH  066%=      5-min Rain = 0
KCO1 131012Z 09007KT 02/M04 A302 RMK A01 T00201038  RH  066%=      5-min Rain = 0
KCO1 131013Z 09007KT 02/M04 A302 RMK A01 T00201038  RH  066%=      5-min Rain = 0
KCO1 131014Z 09007KT 02/M04 A3019 RMK A01 T00201038  RH  065%=      5-min Rain = 0
KCO1 131015Z 09007KT 02/M04 A3019 RMK A01 T00201038  RH  065%=      5-min Rain = 0
KCO1 131016Z 09007KT 02/M04 A3019 RMK A01 T00211038  RH  065%=      5-min Rain = 0
KCO1 131017Z 09007KT 02/M04 A3019 RMK A01 T00201038  RH  065%=      5-min Rain = 0
KCO1 131018Z 09007KT 02/M04 A3019 RMK A01 T00211038  RH  065%=      5-min Rain = 0
KCO1 131019Z 09007KT 02/M04 A3019 RMK A01 T00211038  RH  065%=      5-min Rain = 0
KCO1 131020Z 09008KT 02/M04 A3019 RMK A01 T00211037  RH  065%=      5-min Rain = 0
KCO1 131021Z 09008KT 02/M04 A3019 RMK A01 T00211038  RH  065%=      5-min Rain = 0
KCO1 131022Z 09008KT 02/M04 A3019 RMK A01 T00211038  RH  065%=      5-min Rain = 0
KCO1 131023Z 09007KT 02/M04 A302 RMK A01 T00211038  RH  065%=      5-min Rain = 0
KCO1 131024Z 09007KT 02/M04 A302 RMK A01 T00211038  RH  065%=      5-min Rain = 0
KCO1 131025Z 09007KT 02/M04 A302 RMK A01 T00211038  RH  065%=      5-min Rain = 0
KCO1 131026Z 10007KT 02/M04 A302 RMK A01 T00211038  RH  065%=      5-min Rain = 0
KCO1 131027Z 10007KT 02/M04 A302 RMK A01 T00211037  RH  065%=      5-min Rain = 0
KCO1 131028Z 09007KT 02/M04 A302 RMK A01 T00211037  RH  065%=      5-min Rain = 0
KCO1 131029Z 09007KT 02/M04 A302 RMK A01 T00211038  RH  065%=      5-min Rain = 0
KCO1 131030Z 09007KT 02/M04 A302 RMK A01 T00221037  RH  065%=      5-min Rain = 0
KCO1 131031Z 10007KT 02/M04 A302 RMK A01 T00221037  RH  065%=      5-min Rain = 0
KCO1 131032Z 10006KT 02/M04 A302 RMK A01 T00221037  RH  065%=      5-min Rain = 0
KCO1 131033Z 09006KT 02/M04 A302 RMK A01 T00221037  RH  065%=      5-min Rain = 0
KCO1 131034Z 09007KT 02/M04 A302 RMK A01 T00211038  RH  065%=      5-min Rain = 0
KCO1 131035Z 10007KT 02/M04 A302 RMK A01 T00211037  RH  065%=      5-min Rain = 0
KCO1 131036Z 09006KT 02/M04 A302 RMK A01 T00211037  RH  065%=      5-min Rain = 0
KCO1 131037Z 09007KT 02/M04 A302 RMK A01 T00211037  RH  065%=      5-min Rain = 0
KCO1 131038Z 09007KT 02/M04 A302 RMK A01 T00211037  RH  065%=      5-min Rain = 0
KCO1 131039Z 09007KT 02/M04 A302 RMK A01 T00211037  RH  065%=      5-min Rain = 0
KCO1 131040Z 09007KT 02/M04 A302 RMK A01 T00211037  RH  066%=      5-min Rain = 0
KCO1 131041Z 10007KT 02/M04 A302 RMK A01 T00201037  RH  066%=      5-min Rain = 0
KCO1 131042Z 10007KT 02/M04 A302 RMK A01 T00201037  RH  066%=      5-min Rain = 0
KCO1 131043Z 10007KT 02/M04 A302 RMK A01 T00201037  RH  066%=      5-min Rain = 0
KCO1 131044Z 10006KT 02/M04 A302 RMK A01 T00201037  RH  066%=      5-min Rain = 0
KCO1 131045Z 10006KT 02/M04 A302 RMK A01 T00201038  RH  066%=      5-min Rain = 0
KCO1 131046Z 11007KT 02/M04 A302 RMK A01 T00191038  RH  066%=      5-min Rain = 0
KCO1 131047Z 11006KT 02/M04 A302 RMK A01 T00191037  RH  066%=      5-min Rain = 0
KCO1 131048Z 10007KT 02/M04 A302 RMK A01 T00191037  RH  066%=      5-min Rain = 0
KCO1 131049Z 10007KT 02/M04 A302 RMK A01 T00191038  RH  066%=      5-min Rain = 0
KCO1 131050Z 10007KT 02/M04 A302 RMK A01 T00191037  RH  066%=      5-min Rain = 0
KCO1 131051Z 10007KT 02/M04 A302 RMK A01 T00181038  RH  066%=      5-min Rain = 0
KCO1 131052Z 10006KT 02/M04 A302 RMK A01 T00181037  RH  067%=      5-min Rain = 0
KCO1 131053Z 10006KT 02/M04 A302 RMK A01 T00181038  RH  067%=      5-min Rain = 0
KCO1 131054Z 11006KT 02/M04 A302 RMK A01 T00181037  RH  067%=      5-min Rain = 0
KCO1 131055Z 11006KT 02/M04 A302 RMK A01 T00181037  RH  067%=      5-min Rain = 0
KCO1 131056Z 11006KT 02/M04 A302 RMK A01 T00171038  RH  067%=      5-min Rain = 0
KCO1 131057Z 11006KT 02/M04 A302 RMK A01 T00171037  RH  067%=      5-min Rain = 0
KCO1 131058Z 10005KT 02/M04 A302 RMK A01 T00161038  RH  067%=      5-min Rain = 0
KCO1 131059Z 11005KT 02/M04 A302 RMK A01 T00161037  RH  067%=      5-min Rain = 0
KCO1 131100Z 11004KT 02/M04 A302 RMK A01 T00161037  RH  068%=      5-min Rain = 0
KCO1 131101Z 14004KT 02/M04 A302 RMK A01 T00161037  RH  068%=      5-min Rain = 0
KCO1 131102Z 16005KT 02/M04 A302 RMK A01 T00151038  RH  068%=      5-min Rain = 0
KCO1 131103Z 15005KT 01/M04 A302 RMK A01 T00131039  RH  068%=      5-min Rain = 0
KCO1 131104Z 14005KT 01/M04 A302 RMK A01 T00121041  RH  068%=      5-min Rain = 0
KCO1 131105Z 16005KT 01/M04 A302 RMK A01 T00121041  RH  068%=      5-min Rain = 0
KCO1 131106Z 15005KT 01/M04 A302 RMK A01 T00101043  RH  068%=      5-min Rain = 0
KCO1 131107Z 14005KT 01/M04 A302 RMK A01 T00091044  RH  068%=      5-min Rain = 0
KCO1 131108Z 14006KT 01/M04 A302 RMK A01 T00081044  RH  068%=      5-min Rain = 0
KCO1 131109Z 16005KT 01/M04 A302 RMK A01 T00081044  RH  068%=      5-min Rain = 0
KCO1 131110Z 15005KT 01/M04 A302 RMK A01 T00071044  RH  069%=      5-min Rain = 0
KCO1 131111Z 15006KT 01/M04 A302 RMK A01 T00071044  RH  069%=      5-min Rain = 0
KCO1 131112Z 15005KT 01/M05 A302 RMK A01 T00061045  RH  069%=      5-min Rain = 0
KCO1 131113Z 16006KT 01/M05 A302 RMK A01 T00061045  RH  069%=      5-min Rain = 0
KCO1 131114Z 15005KT 01/M05 A302 RMK A01 T00051045  RH  069%=      5-min Rain = 0
KCO1 131115Z 15006KT 01/M05 A302 RMK A01 T00051045  RH  069%=      5-min Rain = 0
KCO1 131116Z 15006KT 01/M05 A302 RMK A01 T00051045  RH  069%=      5-min Rain = 0
KCO1 131117Z 15006KT 01/M05 A302 RMK A01 T00051045  RH  069%=      5-min Rain = 0
KCO1 131118Z 15005KT 01/M05 A302 RMK A01 T00051045  RH  069%=      5-min Rain = 0
KCO1 131119Z 15006KT 01/M05 A302 RMK A01 T00051045  RH  069%=      5-min Rain = 0
KCO1 131120Z 15006KT 01/M05 A302 RMK A01 T00051045  RH  069%=      5-min Rain = 0
KCO1 131121Z 15005KT 01/M04 A3021 RMK A01 T00051044  RH  069%=      5-min Rain = 0
KCO1 131122Z 15005KT 01/M04 A3021 RMK A01 T00061044  RH  069%=      5-min Rain = 0
KCO1 131123Z 14005KT 01/M04 A3021 RMK A01 T00061044  RH  069%=      5-min Rain = 0
KCO1 131124Z 14006KT 01/M04 A302 RMK A01 T00061043  RH  069%=      5-min Rain = 0
KCO1 131125Z 14006KT 01/M04 A302 RMK A01 T00071043  RH  069%=      5-min Rain = 0
KCO1 131126Z 14006KT 01/M04 A302 RMK A01 T00081042  RH  069%=      5-min Rain = 0
KCO1 131127Z 14006KT 01/M04 A302 RMK A01 T00081042  RH  069%=      5-min Rain = 0
KCO1 131128Z 14007KT 01/M04 A302 RMK A01 T00091042  RH  068%=      5-min Rain = 0
KCO1 131129Z 13007KT 01/M04 A302 RMK A01 T00091043  RH  068%=      5-min Rain = 0
KCO1 131130Z 13007KT 01/M04 A302 RMK A01 T00091043  RH  068%=      5-min Rain = 0
KCO1 131131Z 14006KT 01/M04 A302 RMK A01 T00091043  RH  068%=      5-min Rain = 0
KCO1 131132Z 14006KT 01/M04 A302 RMK A01 T00091044  RH  068%=      5-min Rain = 0
KCO1 131133Z 14006KT 01/M04 A302 RMK A01 T00091044  RH  068%=      5-min Rain = 0
KCO1 131134Z 14006KT 01/M04 A302 RMK A01 T00091044  RH  068%=      5-min Rain = 0
KCO1 131135Z 14006KT 01/M04 A302 RMK A01 T00091044  RH  068%=      5-min Rain = 0
KCO1 131136Z 14005KT 01/M05 A302 RMK A01 T00081045  RH  068%=      5-min Rain = 0
KCO1 131137Z 14005KT 01/M05 A302 RMK A01 T00081045  RH  068%=      5-min Rain = 0
KCO1 131138Z 14006KT 01/M05 A302 RMK A01 T00071045  RH  068%=      5-min Rain = 0
KCO1 131139Z 14005KT 01/M05 A302 RMK A01 T00071045  RH  068%=      5-min Rain = 0
KCO1 131140Z 13006KT 01/M05 A302 RMK A01 T00071046  RH  068%=      5-min Rain = 0
KCO1 131141Z 13006KT 01/M05 A302 RMK A01 T00071046  RH  068%=      5-min Rain = 0
KCO1 131142Z 14006KT 01/M05 A3021 RMK A01 T00061046  RH  068%=      5-min Rain = 0
KCO1 131143Z 14006KT 01/M05 A3021 RMK A01 T00061046  RH  068%=      5-min Rain = 0
KCO1 131144Z 14005KT 01/M05 A3021 RMK A01 T00061046  RH  068%=      5-min Rain = 0
KCO1 131145Z 14005KT 01/M05 A3021 RMK A01 T00051047  RH  068%=      5-min Rain = 0
KCO1 131146Z 14006KT 01/M05 A3021 RMK A01 T00051047  RH  068%=      5-min Rain = 0
KCO1 131147Z 15006KT 00/M05 A3021 RMK A01 T00041047  RH  068%=      5-min Rain = 0
KCO1 131148Z 15007KT 00/M05 A3021 RMK A01 T00041048  RH  068%=      5-min Rain = 0
KCO1 131149Z 15006KT 00/M05 A3021 RMK A01 T00041048  RH  068%=      5-min Rain = 0
KCO1 131150Z 15006KT 00/M05 A3021 RMK A01 T00041049  RH  068%=      5-min Rain = 0
KCO1 131151Z 15006KT 00/M05 A3021 RMK A01 T00031049  RH  068%=      5-min Rain = 0
KCO1 131152Z 15006KT 00/M05 A3021 RMK A01 T00031049  RH  068%=      5-min Rain = 0
KCO1 131153Z 15007KT 00/M05 A3021 RMK A01 T00031050  RH  068%=      5-min Rain = 0
KCO1 131154Z 15006KT 00/M05 A3021 RMK A01 T00031050  RH  068%=      5-min Rain = 0
KCO1 131155Z 16006KT 00/M05 A3021 RMK A01 T00031050  RH  067%=      5-min Rain = 0
KCO1 131156Z 15006KT 00/M05 A3022 RMK A01 T00021051  RH  067%=      5-min Rain = 0
KCO1 131157Z 15006KT 00/M05 A3022 RMK A01 T00021051  RH  067%=      5-min Rain = 0
KCO1 131158Z 15006KT 00/M05 A3022 RMK A01 T00021052  RH  067%=      5-min Rain = 0
KCO1 131159Z 15006KT 00/M05 A3022 RMK A01 T00021052  RH  067%=      5-min Rain = 0
KCO1 131200Z 15007KT 00/M05 A3022 RMK A01 T00021052  RH  067%=      5-min Rain = 0
KCO1 131201Z 16006KT 00/M05 A3022 RMK A01 T00021052  RH  067%=      5-min Rain = 0
KCO1 131202Z 15006KT 00/M05 A3022 RMK A01 T00021053  RH  067%=      5-min Rain = 0
KCO1 131203Z 15006KT 00/M05 A3022 RMK A01 T00021052  RH  067%=      5-min Rain = 0
KCO1 131204Z 15006KT 00/M05 A3022 RMK A01 T00021053  RH  067%=      5-min Rain = 0
KCO1 131205Z 15006KT 00/M05 A3022 RMK A01 T00021053  RH  067%=      5-min Rain = 0
KCO1 131206Z 15007KT 00/M05 A3022 RMK A01 T00021053  RH  067%=      5-min Rain = 0
KCO1 131207Z 15007KT 00/M05 A3022 RMK A01 T00021054  RH  066%=      5-min Rain = 0
KCO1 131208Z 15007KT 00/M05 A3022 RMK A01 T00021054  RH  066%=      5-min Rain = 0
KCO1 131209Z 15007KT 00/M05 A3022 RMK A01 T00021054  RH  066%=      5-min Rain = 0
KCO1 131210Z 15007KT 00/M05 A3022 RMK A01 T00021054  RH  066%=      5-min Rain = 0
KCO1 131211Z 15007KT 00/M05 A3022 RMK A01 T00021054  RH  066%=      5-min Rain = 0
KCO1 131212Z 15006KT 00/M05 A3022 RMK A01 T00021054  RH  066%=      5-min Rain = 0
KCO1 131213Z 15006KT 00/M06 A3023 RMK A01 T00021055  RH  066%=      5-min Rain = 0
KCO1 131214Z 15006KT 00/M06 A3023 RMK A01 T00021055  RH  066%=      5-min Rain = 0
KCO1 131215Z 15006KT 00/M06 A3023 RMK A01 T00021055  RH  066%=      5-min Rain = 0
KCO1 131216Z 16006KT 00/M06 A3023 RMK A01 T00021055  RH  065%=      5-min Rain = 0
KCO1 131217Z 16005KT 00/M06 A3023 RMK A01 T00021055  RH  065%=      5-min Rain = 0
KCO1 131218Z 16005KT 00/M06 A3023 RMK A01 T00021055  RH  066%=      5-min Rain = 0
KCO1 131219Z 15005KT 00/M06 A3023 RMK A01 T00021055  RH  065%=      5-min Rain = 0
KCO1 131220Z 15004KT 00/M06 A3023 RMK A01 T00021055  RH  066%=      5-min Rain = 0
KCO1 131221Z 15005KT 00/M06 A3023 RMK A01 T00021055  RH  066%=      5-min Rain = 0
KCO1 131222Z 15005KT 00/M06 A3023 RMK A01 T00011055  RH  066%=      5-min Rain = 0
KCO1 131223Z 15005KT 00/M06 A3023 RMK A01 T00011055  RH  066%=      5-min Rain = 0
KCO1 131224Z 15004KT 00/M06 A3023 RMK A01 T00011055  RH  066%=      5-min Rain = 0
KCO1 131225Z 15005KT 00/M06 A3023 RMK A01 T00011056  RH  066%=      5-min Rain = 0
KCO1 131226Z 15005KT 00/M06 A3023 RMK A01 T00011056  RH  066%=      5-min Rain = 0
KCO1 131227Z 15005KT 00/M06 A3023 RMK A01 T00011056  RH  066%=      5-min Rain = 0
KCO1 131228Z 15006KT 00/06 A3023 RMK A01 T00000-56  RH  066%=      5-min Rain = 0
KCO1 131229Z 15006KT 00/06 A3023 RMK A01 T00000-56  RH  066%=      5-min Rain = 0
KCO1 131230Z 15007KT 00/06 A3023 RMK A01 T00000-55  RH  066%=      5-min Rain = 0
KCO1 131231Z 15007KT 00/M06 A3023 RMK A01 T00011055  RH  066%=      5-min Rain = 0
KCO1 131232Z 14007KT 00/M05 A3023 RMK A01 T00021054  RH  066%=      5-min Rain = 0
KCO1 131233Z 14007KT 00/M05 A3023 RMK A01 T00031054  RH  066%=      5-min Rain = 0
KCO1 131234Z 15006KT 00/M05 A3023 RMK A01 T00031054  RH  065%=      5-min Rain = 0
KCO1 131235Z 15006KT 00/M06 A3023 RMK A01 T00031055  RH  065%=      5-min Rain = 0
KCO1 131236Z 14006KT 00/M06 A3023 RMK A01 T00031055  RH  065%=      5-min Rain = 0
KCO1 131237Z 14006KT 00/M06 A3023 RMK A01 T00031055  RH  065%=      5-min Rain = 0
KCO1 131238Z 15006KT 00/M06 A3023 RMK A01 T00031055  RH  065%=      5-min Rain = 0
KCO1 131239Z 15006KT 00/M05 A3023 RMK A01 T00031054  RH  065%=      5-min Rain = 0
KCO1 131240Z 16005KT 00/M05 A3023 RMK A01 T00041054  RH  065%=      5-min Rain = 0
KCO1 131241Z 16005KT 00/M05 A3023 RMK A01 T00041054  RH  065%=      5-min Rain = 0
KCO1 131242Z 15006KT 01/M05 A3023 RMK A01 T00051053  RH  065%=      5-min Rain = 0
KCO1 131243Z 15005KT 01/M05 A3023 RMK A01 T00061053  RH  065%=      5-min Rain = 0
KCO1 131244Z 15005KT 01/M05 A3023 RMK A01 T00061053  RH  064%=      5-min Rain = 0
KCO1 131245Z 15005KT 01/M05 A3023 RMK A01 T00071053  RH  064%=      5-min Rain = 0
KCO1 131246Z 15005KT 01/M05 A3023 RMK A01 T00081053  RH  064%=      5-min Rain = 0
KCO1 131247Z 14004KT 01/M05 A3023 RMK A01 T00081053  RH  064%=      5-min Rain = 0
KCO1 131248Z 12006KT 01/M05 A3023 RMK A01 T00081053  RH  064%=      5-min Rain = 0
KCO1 131249Z 13005KT 01/M05 A3023 RMK A01 T00091053  RH  064%=      5-min Rain = 0
KCO1 131250Z 14005KT 01/M05 A3023 RMK A01 T00091053  RH  063%=      5-min Rain = 0
KCO1 131251Z 14006KT 01/M05 A3023 RMK A01 T00081053  RH  064%=      5-min Rain = 0
KCO1 131252Z 15005KT 01/M05 A3023 RMK A01 T00081053  RH  064%=      5-min Rain = 0
KCO1 131253Z 14005KT 01/M05 A3023 RMK A01 T00081053  RH  064%=      5-min Rain = 0
KCO1 131254Z 14005KT 01/M05 A3023 RMK A01 T00081053  RH  064%=      5-min Rain = 0
KCO1 131255Z 14004KT 01/M05 A3023 RMK A01 T00081053  RH  064%=      5-min Rain = 0
KCO1 131256Z 13004KT 01/M05 A3023 RMK A01 T00081053  RH  064%=      5-min Rain = 0
KCO1 131257Z 13005KT 01/M05 A3023 RMK A01 T00081053  RH  064%=      5-min Rain = 0
KCO1 131258Z 13004KT 01/M05 A3023 RMK A01 T00071054  RH  064%=      5-min Rain = 0
KCO1 131259Z 14005KT 01/M05 A3023 RMK A01 T00071054  RH  064%=      5-min Rain = 0
KCO1 131300Z 15004KT 01/M05 A3023 RMK A01 T00071054  RH  064%=      5-min Rain = 0
KCO1 131301Z 15004KT 01/M05 A3023 RMK A01 T00071053  RH  064%=      5-min Rain = 0
KCO1 131302Z 16004KT 01/M05 A3023 RMK A01 T00071054  RH  064%=      5-min Rain = 0
KCO1 131303Z 16004KT 01/M05 A3023 RMK A01 T00061054  RH  064%=      5-min Rain = 0
KCO1 131304Z 16004KT 01/M05 A3023 RMK A01 T00061053  RH  064%=      5-min Rain = 0
KCO1 131305Z 17004KT 01/M05 A3024 RMK A01 T00061053  RH  064%=      5-min Rain = 0
KCO1 131306Z 17005KT 01/M05 A3024 RMK A01 T00061054  RH  064%=      5-min Rain = 0
KCO1 131307Z 17005KT 01/M05 A3024 RMK A01 T00061054  RH  064%=      5-min Rain = 0
KCO1 131308Z 17005KT 01/M05 A3024 RMK A01 T00061053  RH  065%=      5-min Rain = 0
KCO1 131309Z 17005KT 01/M05 A3024 RMK A01 T00061053  RH  065%=      5-min Rain = 0
KCO1 131310Z 17005KT 01/M05 A3024 RMK A01 T00061052  RH  065%=      5-min Rain = 0
KCO1 131311Z 17005KT 01/M05 A3024 RMK A01 T00061053  RH  065%=      5-min Rain = 0
KCO1 131312Z 17005KT 01/M05 A3024 RMK A01 T00061053  RH  065%=      5-min Rain = 0
KCO1 131313Z 18005KT 01/M05 A3024 RMK A01 T00061053  RH  065%=      5-min Rain = 0
KCO1 131314Z 18005KT 01/M05 A3024 RMK A01 T00061053  RH  065%=      5-min Rain = 0
KCO1 131315Z 18004KT 01/M05 A3024 RMK A01 T00051054  RH  065%=      5-min Rain = 0
KCO1 131316Z 17004KT 00/M05 A3024 RMK A01 T00041054  RH  065%=      5-min Rain = 0
KCO1 131317Z 18004KT 00/M05 A3024 RMK A01 T00041054  RH  065%=      5-min Rain = 0
KCO1 131318Z 18004KT 00/M06 A3024 RMK A01 T00041055  RH  065%=      5-min Rain = 0
KCO1 131319Z 18004KT 00/M05 A3024 RMK A01 T00031054  RH  065%=      5-min Rain = 0
KCO1 131320Z 18004KT 00/M06 A3024 RMK A01 T00021055  RH  066%=      5-min Rain = 0
KCO1 131321Z 18004KT 00/M06 A3024 RMK A01 T00021055  RH  066%=      5-min Rain = 0
KCO1 131322Z 17003KT 00/M06 A3025 RMK A01 T00011055  RH  066%=      5-min Rain = 0
KCO1 131323Z 17004KT 00/M05 A3025 RMK A01 T00011054  RH  066%=      5-min Rain = 0
KCO1 131324Z 17003KT 00/M06 A3024 RMK A01 T00011055  RH  066%=      5-min Rain = 0
KCO1 131325Z 17003KT 00/M05 A3024 RMK A01 T00011054  RH  066%=      5-min Rain = 0
KCO1 131326Z 17003KT 00/M05 A3024 RMK A01 T00011054  RH  066%=      5-min Rain = 0
KCO1 131327Z 16003KT 00/M05 A3024 RMK A01 T00011054  RH  067%=      5-min Rain = 0
KCO1 131328Z 15003KT 00/M05 A3024 RMK A01 T00011054  RH  067%=      5-min Rain = 0
KCO1 131329Z 16003KT 00/M05 A3024 RMK A01 T00011054  RH  067%=      5-min Rain = 0
KCO1 131330Z 17004KT 00/05 A3024 RMK A01 T00000-54  RH  067%=      5-min Rain = 0
KCO1 131331Z 16004KT 00/05 A3024 RMK A01 T00-00-54  RH  067%=      5-min Rain = 0
KCO1 131332Z 15004KT 00/05 A3024 RMK A01 T00-00-54  RH  067%=      5-min Rain = 0
KCO1 131333Z 15004KT M00/M05 A3024 RMK A01 T10011054  RH  067%=      5-min Rain = 0
KCO1 131334Z 16004KT 00/05 A3025 RMK A01 T00-00-53  RH  067%=      5-min Rain = 0
KCO1 131335Z 16004KT 00/05 A3025 RMK A01 T00-00-53  RH  067%=      5-min Rain = 0
KCO1 131336Z 17004KT M00/M05 A3025 RMK A01 T10011054  RH  067%=      5-min Rain = 0
KCO1 131337Z 17004KT 00/05 A3025 RMK A01 T00-00-53  RH  067%=      5-min Rain = 0
KCO1 131338Z 16004KT 00/05 A3025 RMK A01 T00-00-53  RH  067%=      5-min Rain = 0
KCO1 131339Z 16004KT 00/05 A3025 RMK A01 T00000-53  RH  067%=      5-min Rain = 0
KCO1 131340Z 16004KT 00/05 A3025 RMK A01 T00-00-53  RH  067%=      5-min Rain = 0
KCO1 131341Z 17004KT 00/05 A3025 RMK A01 T00-00-53  RH  067%=      5-min Rain = 0
KCO1 131342Z 17004KT 00/05 A3025 RMK A01 T00-00-54  RH  067%=      5-min Rain = 0
KCO1 131343Z 17004KT 00/05 A3025 RMK A01 T00-00-53  RH  067%=      5-min Rain = 0
KCO1 131344Z 17004KT 00/05 A3025 RMK A01 T00-00-53  RH  067%=      5-min Rain = 0
KCO1 131345Z 17004KT 00/05 A3025 RMK A01 T00000-53  RH  067%=      5-min Rain = 0
KCO1 131346Z 17004KT 00/M05 A3025 RMK A01 T00011053  RH  067%=      5-min Rain = 0
KCO1 131347Z 17004KT 00/M05 A3025 RMK A01 T00011053  RH  067%=      5-min Rain = 0
KCO1 131348Z 17004KT 00/M05 A3025 RMK A01 T00011052  RH  067%=      5-min Rain = 0
KCO1 131349Z 17004KT 00/M05 A3025 RMK A01 T00021052  RH  067%=      5-min Rain = 0
KCO1 131350Z 17004KT 00/M05 A3025 RMK A01 T00031052  RH  067%=      5-min Rain = 0
KCO1 131351Z 17004KT 00/M05 A3025 RMK A01 T00031052  RH  067%=      5-min Rain = 0
KCO1 131352Z 17004KT 00/M05 A3026 RMK A01 T00031052  RH  066%=      5-min Rain = 0
KCO1 131353Z 17004KT 00/M05 A3026 RMK A01 T00031052  RH  066%=      5-min Rain = 0
KCO1 131354Z 17004KT 00/M05 A3026 RMK A01 T00041052  RH  066%=      5-min Rain = 0
KCO1 131355Z 18004KT 00/M05 A3026 RMK A01 T00041052  RH  066%=      5-min Rain = 0
KCO1 131356Z 18004KT 00/M05 A3025 RMK A01 T00041051  RH  066%=      5-min Rain = 0
KCO1 131357Z 19004KT 01/M05 A3025 RMK A01 T00051051  RH  066%=      5-min Rain = 0
KCO1 131358Z 19004KT 01/M05 A3025 RMK A01 T00051051  RH  066%=      5-min Rain = 0
KCO1 131359Z 19004KT 01/M05 A3025 RMK A01 T00051051  RH  066%=      5-min Rain = 0
KCO1 131400Z 18005KT 01/M05 A3026 RMK A01 T00061051  RH  066%=      5-min Rain = 0
KCO1 131401Z 18005KT 01/M05 A3026 RMK A01 T00071050  RH  066%=      5-min Rain = 0
KCO1 131402Z 18005KT 01/M05 A3026 RMK A01 T00081049  RH  066%=      5-min Rain = 0
KCO1 131403Z 18005KT 01/M05 A3026 RMK A01 T00091049  RH  065%=      5-min Rain = 0
KCO1 131404Z 18005KT 01/M05 A3026 RMK A01 T00091050  RH  064%=      5-min Rain = 0
KCO1 131405Z 18005KT 01/M05 A3026 RMK A01 T00101051  RH  064%=      5-min Rain = 0
KCO1 131406Z 18005KT 01/M05 A3026 RMK A01 T00111049  RH  064%=      5-min Rain = 0
KCO1 131407Z 18005KT 01/M05 A3026 RMK A01 T00121049  RH  064%=      5-min Rain = 0
KCO1 131408Z 19005KT 01/M05 A3026 RMK A01 T00131049  RH  064%=      5-min Rain = 0
KCO1 131409Z 19005KT 01/M05 A3026 RMK A01 T00141048  RH  064%=      5-min Rain = 0
KCO1 131410Z 19006KT 01/M05 A3026 RMK A01 T00141048  RH  063%=      5-min Rain = 0
KCO1 131411Z 19005KT 02/M05 A3027 RMK A01 T00151047  RH  063%=      5-min Rain = 0
KCO1 131412Z 20005KT 02/M05 A3027 RMK A01 T00171047  RH  063%=      5-min Rain = 0
KCO1 131413Z 20005KT 02/M05 A3027 RMK A01 T00181047  RH  062%=      5-min Rain = 0
KCO1 131414Z 20005KT 02/M05 A3027 RMK A01 T00181046  RH  062%=      5-min Rain = 0
KCO1 131415Z 20006KT 02/M05 A3027 RMK A01 T00191046  RH  062%=      5-min Rain = 0
KCO1 131416Z 19006KT 02/M05 A3027 RMK A01 T00191046  RH  062%=      5-min Rain = 0
KCO1 131417Z 19007KT 02/M05 A3027 RMK A01 T00191046  RH  062%=      5-min Rain = 0
KCO1 131418Z 19007KT 02/M05 A3027 RMK A01 T00191046  RH  062%=      5-min Rain = 0
KCO1 131419Z 19006KT 02/M05 A3028 RMK A01 T00191046  RH  062%=      5-min Rain = 0
KCO1 131420Z 19007KT 02/M05 A3028 RMK A01 T00191047  RH  062%=      5-min Rain = 0
KCO1 131421Z 19007KT 02/M05 A3028 RMK A01 T00191047  RH  062%=      5-min Rain = 0
KCO1 131422Z 19007KT 02/M05 A3028 RMK A01 T00191047  RH  061%=      5-min Rain = 0
KCO1 131423Z 19006KT 02/M05 A3028 RMK A01 T00191048  RH  061%=      5-min Rain = 0
KCO1 131424Z 19007KT 02/M05 A3028 RMK A01 T00201047  RH  061%=      5-min Rain = 0
KCO1 131425Z 18005KT 02/M05 A3028 RMK A01 T00201047  RH  061%=      5-min Rain = 0
KCO1 131426Z 19006KT 02/M05 A3028 RMK A01 T00201047  RH  061%=      5-min Rain = 0
KCO1 131427Z 18006KT 02/M05 A3028 RMK A01 T00211047  RH  061%=      5-min Rain = 0
KCO1 131428Z 19006KT 02/M05 A3028 RMK A01 T00211046  RH  061%=      5-min Rain = 0
KCO1 131429Z 19006KT 02/M05 A3028 RMK A01 T00221047  RH  061%=      5-min Rain = 0
KCO1 131430Z 19006KT 02/M05 A3028 RMK A01 T00211047  RH  060%=      5-min Rain = 0
KCO1 131431Z 19006KT 02/M05 A3028 RMK A01 T00211047  RH  060%=      5-min Rain = 0
KCO1 131432Z 18006KT 02/M05 A3028 RMK A01 T00221047  RH  060%=      5-min Rain = 0
KCO1 131433Z 18006KT 02/M05 A3028 RMK A01 T00221047  RH  060%=      5-min Rain = 0
KCO1 131434Z 18006KT 02/M05 A3028 RMK A01 T00221048  RH  060%=      5-min Rain = 0
KCO1 131435Z 18006KT 02/M05 A3028 RMK A01 T00221047  RH  060%=      5-min Rain = 0
KCO1 131436Z 18006KT 02/M05 A3028 RMK A01 T00221047  RH  060%=      5-min Rain = 0
KCO1 131437Z 18006KT 02/M05 A3028 RMK A01 T00231047  RH  060%=      5-min Rain = 0
KCO1 131438Z 18006KT 02/M05 A3028 RMK A01 T00231048  RH  060%=      5-min Rain = 0
KCO1 131439Z 18007KT 02/M05 A3028 RMK A01 T00231047  RH  059%=      5-min Rain = 0
KCO1 131440Z 18008KT 02/M05 A3028 RMK A01 T00231048  RH  059%=      5-min Rain = 0
KCO1 131441Z 18007KT 02/M05 A3028 RMK A01 T00241048  RH  059%=      5-min Rain = 0
KCO1 131442Z 19005KT 03/M05 A3028 RMK A01 T00251048  RH  059%=      5-min Rain = 0
KCO1 131443Z 19006KT 03/M05 A3028 RMK A01 T00261047  RH  059%=      5-min Rain = 0
KCO1 131444Z 19007KT 03/M05 A3028 RMK A01 T00261047  RH  058%=      5-min Rain = 0
KCO1 131445Z 19007KT 03/M05 A3028 RMK A01 T00271047  RH  058%=      5-min Rain = 0
KCO1 131446Z 19007KT 03/M05 A3028 RMK A01 T00271047  RH  058%=      5-min Rain = 0
KCO1 131447Z 18007KT 03/M05 A3028 RMK A01 T00281047  RH  058%=      5-min Rain = 0
KCO1 131448Z 19006KT 03/M05 A3029 RMK A01 T00271048  RH  058%=      5-min Rain = 0
KCO1 131449Z 20007KT 03/M05 A3029 RMK A01 T00271047  RH  058%=      5-min Rain = 0
KCO1 131450Z 19007KT 03/M05 A3029 RMK A01 T00271047  RH  058%=      5-min Rain = 0
KCO1 131451Z 18006KT 03/M05 A3029 RMK A01 T00281047  RH  058%=      5-min Rain = 0
KCO1 131452Z 19005KT 03/M05 A3029 RMK A01 T00291046  RH  058%=      5-min Rain = 0
KCO1 131453Z 19005KT 03/M05 A3028 RMK A01 T00291046  RH  058%=      5-min Rain = 0
KCO1 131454Z 20005KT 03/M05 A3028 RMK A01 T00291047  RH  058%=      5-min Rain = 0
KCO1 131455Z 20005KT 03/M05 A3028 RMK A01 T00291047  RH  058%=      5-min Rain = 0
KCO1 131456Z 20005KT 03/M05 A3028 RMK A01 T00281047  RH  058%=      5-min Rain = 0
KCO1 131457Z 18004KT 03/M05 A3028 RMK A01 T00291047  RH  058%=      5-min Rain = 0
KCO1 131458Z 17005KT 03/M05 A3028 RMK A01 T00291046  RH  058%=      5-min Rain = 0
KCO1 131459Z 18005KT 03/M05 A3028 RMK A01 T00311045  RH  058%=      5-min Rain = 0
KCO1 131500Z 18005KT 03/M05 A3028 RMK A01 T00311045  RH  057%=      5-min Rain = 0
KCO1 131501Z 18005KT 03/M05 A3028 RMK A01 T00311045  RH  057%=      5-min Rain = 0
KCO1 131502Z 19006KT 03/M05 A3028 RMK A01 T00311046  RH  057%=      5-min Rain = 0
KCO1 131503Z 19006KT 03/M05 A3028 RMK A01 T00321045  RH  057%=      5-min Rain = 0
KCO1 131504Z 19006KT 03/M05 A3029 RMK A01 T00321045  RH  057%=      5-min Rain = 0
KCO1 131505Z 20006KT 03/M04 A3029 RMK A01 T00321044  RH  057%=      5-min Rain = 0
KCO1 131506Z 20006KT 03/M04 A3029 RMK A01 T00331044  RH  057%=      5-min Rain = 0
KCO1 131507Z 19006KT 03/M04 A3029 RMK A01 T00331044  RH  057%=      5-min Rain = 0
KCO1 131508Z 18006KT 03/M04 A3029 RMK A01 T00331044  RH  057%=      5-min Rain = 0
KCO1 131509Z 17005KT 03/M04 A3029 RMK A01 T00331044  RH  057%=      5-min Rain = 0
KCO1 131510Z 19004KT 03/M04 A3029 RMK A01 T00341044  RH  057%=      5-min Rain = 0
KCO1 131511Z 21004KT 03/M04 A3029 RMK A01 T00341043  RH  057%=      5-min Rain = 0
KCO1 131512Z 21004KT 04/M04 A3029 RMK A01 T00351043  RH  057%=      5-min Rain = 0
KCO1 131513Z 22005KT 04/M04 A3029 RMK A01 T00351043  RH  057%=      5-min Rain = 0
KCO1 131514Z 21005KT 04/M04 A3029 RMK A01 T00351043  RH  057%=      5-min Rain = 0
KCO1 131515Z 21005KT 04/M04 A3029 RMK A01 T00361043  RH  056%=      5-min Rain = 0
KCO1 131516Z 19005KT 04/M04 A3029 RMK A01 T00361043  RH  056%=      5-min Rain = 0
KCO1 131517Z 20004KT 04/M04 A3029 RMK A01 T00361042  RH  056%=      5-min Rain = 0
KCO1 131518Z 20004KT 04/M04 A3029 RMK A01 T00371041  RH  056%=      5-min Rain = 0
KCO1 131519Z 20004KT 04/M04 A3029 RMK A01 T00391042  RH  056%=      5-min Rain = 0
KCO1 131520Z 20002KT 04/M04 A3029 RMK A01 T00381042  RH  056%=      5-min Rain = 0
KCO1 131521Z 19004KT 04/M04 A3029 RMK A01 T00391042  RH  056%=      5-min Rain = 0
KCO1 131522Z 20004KT 04/M04 A3029 RMK A01 T00401041  RH  056%=      5-min Rain = 0
KCO1 131523Z 18004KT 04/M04 A3029 RMK A01 T00411040  RH  055%=      5-min Rain = 0
KCO1 131524Z 17004KT 04/M04 A3029 RMK A01 T00411041  RH  055%=      5-min Rain = 0
KCO1 131525Z 19004KT 04/M04 A3029 RMK A01 T00411040  RH  055%=      5-min Rain = 0
KCO1 131526Z 18004KT 04/M04 A3029 RMK A01 T00421039  RH  056%=      5-min Rain = 0
KCO1 131527Z 19004KT 04/M04 A3029 RMK A01 T00441038  RH  055%=      5-min Rain = 0
KCO1 131528Z 19005KT 05/M04 A3029 RMK A01 T00451038  RH  055%=      5-min Rain = 0
KCO1 131529Z 20005KT 04/M04 A3029 RMK A01 T00431040  RH  055%=      5-min Rain = 0
KCO1 131530Z 18004KT 04/M04 A303 RMK A01 T00411041  RH  055%=      5-min Rain = 0
KCO1 131531Z 19005KT 04/M04 A303 RMK A01 T00411040  RH  055%=      5-min Rain = 0
KCO1 131532Z 19004KT 04/M04 A303 RMK A01 T00401041  RH  055%=      5-min Rain = 0
KCO1 131533Z 21004KT 04/M04 A303 RMK A01 T00411040  RH  056%=      5-min Rain = 0
KCO1 131534Z 23004KT 04/M04 A303 RMK A01 T00421039  RH  055%=      5-min Rain = 0
KCO1 131535Z 22003KT 04/M04 A303 RMK A01 T00421040  RH  055%=      5-min Rain = 0
KCO1 131536Z 19005KT 04/M04 A303 RMK A01 T00421039  RH  055%=      5-min Rain = 0
KCO1 131537Z 17004KT 04/M04 A303 RMK A01 T00431040  RH  055%=      5-min Rain = 0
KCO1 131538Z 16004KT 04/M04 A303 RMK A01 T00421041  RH  055%=      5-min Rain = 0
KCO1 131539Z 16003KT 04/M04 A303 RMK A01 T00431040  RH  055%=      5-min Rain = 0
KCO1 131540Z 15004KT 04/M04 A303 RMK A01 T00441039  RH  055%=      5-min Rain = 0
KCO1 131541Z 16003KT 05/M04 A303 RMK A01 T00451040  RH  054%=      5-min Rain = 0
KCO1 131542Z 17004KT 05/M04 A303 RMK A01 T00461040  RH  054%=      5-min Rain = 0
KCO1 131543Z 19003KT 05/M04 A303 RMK A01 T00461040  RH  054%=      5-min Rain = 0
KCO1 131544Z 18004KT 05/M04 A303 RMK A01 T00471039  RH  054%=      5-min Rain = 0
KCO1 131545Z 20005KT 05/M04 A303 RMK A01 T00471039  RH  053%=      5-min Rain = 0
KCO1 131546Z 19004KT 05/M04 A303 RMK A01 T00481039  RH  053%=      5-min Rain = 0
KCO1 131547Z 19003KT 05/M04 A3031 RMK A01 T00471041  RH  053%=      5-min Rain = 0
KCO1 131548Z 20003KT 05/M04 A3031 RMK A01 T00461041  RH  053%=      5-min Rain = 0
KCO1 131549Z 22004KT 05/M04 A3031 RMK A01 T00451041  RH  054%=      5-min Rain = 0
KCO1 131550Z 21003KT 05/M04 A3031 RMK A01 T00451040  RH  054%=      5-min Rain = 0
KCO1 131551Z 19004KT 04/M04 A3031 RMK A01 T00441040  RH  054%=      5-min Rain = 0
KCO1 131552Z 21004KT 05/M04 A3031 RMK A01 T00451039  RH  054%=      5-min Rain = 0
KCO1 131553Z 20003KT 05/M04 A3031 RMK A01 T00451039  RH  054%=      5-min Rain = 0
KCO1 131554Z 18003KT 05/M04 A3031 RMK A01 T00461039  RH  054%=      5-min Rain = 0
KCO1 131555Z 18003KT 05/M04 A3031 RMK A01 T00461040  RH  054%=      5-min Rain = 0
KCO1 131556Z 19004KT 05/M04 A3031 RMK A01 T00461040  RH  054%=      5-min Rain = 0
KCO1 131557Z 21005KT 05/M04 A3031 RMK A01 T00471039  RH  054%=      5-min Rain = 0
KCO1 131558Z 22005KT 05/M04 A3031 RMK A01 T00471039  RH  054%=      5-min Rain = 0
KCO1 131559Z 22004KT 05/M04 A3031 RMK A01 T00471039  RH  054%=      5-min Rain = 0
KCO1 131600Z 22004KT 05/M04 A3031 RMK A01 T00481038  RH  054%=      5-min Rain = 0
KCO1 131601Z 22004KT 05/M04 A3031 RMK A01 T00481038  RH  054%=      5-min Rain = 0
KCO1 131602Z 21004KT 05/M04 A3031 RMK A01 T00481038  RH  054%=      5-min Rain = 0
KCO1 131603Z 22003KT 05/M04 A3031 RMK A01 T00491038  RH  053%=      5-min Rain = 0
KCO1 131604Z 22004KT 05/M04 A3031 RMK A01 T00481038  RH  054%=      5-min Rain = 0
KCO1 131605Z 22005KT 05/M04 A3031 RMK A01 T00481038  RH  054%=      5-min Rain = 0
KCO1 131606Z 22005KT 05/M04 A3032 RMK A01 T00481038  RH  054%=      5-min Rain = 0
KCO1 131607Z 22005KT 05/M04 A3032 RMK A01 T00481038  RH  054%=      5-min Rain = 0
KCO1 131608Z 21005KT 05/M04 A3032 RMK A01 T00491038  RH  054%=      5-min Rain = 0
KCO1 131609Z 21004KT 05/M04 A3032 RMK A01 T00501037  RH  053%=      5-min Rain = 0
KCO1 131610Z 21004KT 05/M04 A3032 RMK A01 T00501037  RH  053%=      5-min Rain = 0
KCO1 131611Z 22003KT 05/M04 A3032 RMK A01 T00511037  RH  053%=      5-min Rain = 0
KCO1 131612Z 23004KT 05/M04 A3032 RMK A01 T00521036  RH  053%=      5-min Rain = 0
KCO1 131613Z 21004KT 05/M04 A3031 RMK A01 T00521037  RH  053%=      5-min Rain = 0
KCO1 131614Z 21004KT 05/M04 A3031 RMK A01 T00521037  RH  053%=      5-min Rain = 0
KCO1 131615Z 22003KT 05/M04 A3032 RMK A01 T00511038  RH  053%=      5-min Rain = 0
KCO1 131616Z 21005KT 05/M04 A3032 RMK A01 T00511038  RH  053%=      5-min Rain = 0
KCO1 131617Z 19004KT 05/M04 A3032 RMK A01 T00511038  RH  053%=      5-min Rain = 0
KCO1 131618Z 19005KT 05/M04 A3032 RMK A01 T00511038  RH  053%=      5-min Rain = 0
KCO1 131619Z 19005KT 05/M04 A3032 RMK A01 T00511038  RH  053%=      5-min Rain = 0
KCO1 131620Z 20004KT 05/M04 A3033 RMK A01 T00501038  RH  053%=      5-min Rain = 0
KCO1 131621Z 23005KT 05/M04 A3033 RMK A01 T00511037  RH  053%=      5-min Rain = 0
KCO1 131622Z 22003KT 05/M04 A3032 RMK A01 T00521038  RH  053%=      5-min Rain = 0
KCO1 131623Z 20004KT 05/M04 A3032 RMK A01 T00511038  RH  053%=      5-min Rain = 0
KCO1 131624Z 20004KT 05/M04 A3032 RMK A01 T00511037  RH  053%=      5-min Rain = 0
KCO1 131625Z 21003KT 05/M04 A3032 RMK A01 T00521037  RH  053%=      5-min Rain = 0
KCO1 131626Z 21003KT 05/M04 A3032 RMK A01 T00531036  RH  053%=      5-min Rain = 0
KCO1 131627Z 20003KT 05/M04 A3032 RMK A01 T00541036  RH  052%=      5-min Rain = 0
KCO1 131628Z 23004KT 05/M04 A3032 RMK A01 T00541036  RH  052%=      5-min Rain = 0
KCO1 131629Z 23003KT 05/M04 A3032 RMK A01 T00541037  RH  052%=      5-min Rain = 0
KCO1 131630Z 22003KT 05/M04 A3032 RMK A01 T00531037  RH  052%=      5-min Rain = 0
KCO1 131631Z 22004KT 05/M04 A3033 RMK A01 T00541036  RH  052%=      5-min Rain = 0
KCO1 131632Z 22004KT 05/M04 A3033 RMK A01 T00541036  RH  052%=      5-min Rain = 0
KCO1 131633Z 22004KT 06/M04 A3033 RMK A01 T00551036  RH  052%=      5-min Rain = 0
KCO1 131634Z 22003KT 06/M04 A3032 RMK A01 T00551037  RH  052%=      5-min Rain = 0
KCO1 131635Z 21003KT 06/M04 A3032 RMK A01 T00551036  RH  052%=      5-min Rain = 0
KCO1 131636Z 22003KT 06/M04 A3032 RMK A01 T00561036  RH  052%=      5-min Rain = 0
KCO1 131637Z 23003KT 06/M04 A3032 RMK A01 T00561036  RH  052%=      5-min Rain = 0
KCO1 131638Z 27003KT 06/M04 A3032 RMK A01 T00561037  RH  051%=      5-min Rain = 0
KCO1 131639Z 28002KT 06/M04 A3032 RMK A01 T00561037  RH  051%=      5-min Rain = 0
KCO1 131640Z 26002KT 06/M04 A3033 RMK A01 T00561037  RH  051%=      5-min Rain = 0
KCO1 131641Z 26003KT 06/M04 A3033 RMK A01 T00551037  RH  052%=      5-min Rain = 0
KCO1 131642Z 23003KT 06/M04 A3033 RMK A01 T00551037  RH  052%=      5-min Rain = 0
KCO1 131643Z 22002KT 06/M04 A3033 RMK A01 T00561036  RH  052%=      5-min Rain = 0
KCO1 131644Z 25003KT 06/M04 A3032 RMK A01 T00561036  RH  051%=      5-min Rain = 0
KCO1 131645Z 28003KT 06/M04 A3032 RMK A01 T00571036  RH  051%=      5-min Rain = 0
KCO1 131646Z 29003KT 06/M04 A3032 RMK A01 T00561036  RH  051%=      5-min Rain = 0
KCO1 131647Z 31004KT 06/M04 A3032 RMK A01 T00551037  RH  051%=      5-min Rain = 0
KCO1 131648Z 28003KT 05/M04 A3032 RMK A01 T00541038  RH  052%=      5-min Rain = 0
KCO1 131649Z 26002KT 05/M04 A3032 RMK A01 T00531037  RH  052%=      5-min Rain = 0
KCO1 131650Z 25002KT 05/M04 A3032 RMK A01 T00541037  RH  052%=      5-min Rain = 0
KCO1 131651Z 25002KT 05/M04 A3032 RMK A01 T00541037  RH  052%=      5-min Rain = 0
KCO1 131652Z 24003KT 06/M04 A3032 RMK A01 T00551036  RH  052%=      5-min Rain = 0
KCO1 131653Z 22002KT 06/M04 A3032 RMK A01 T00571035  RH  052%=      5-min Rain = 0
KCO1 131654Z 23002KT 06/M03 A3032 RMK A01 T00601033  RH  051%=      5-min Rain = 0
KCO1 131655Z 24002KT 06/M03 A3032 RMK A01 T00621034  RH  050%=      5-min Rain = 0
KCO1 131656Z 24003KT 06/M03 A3032 RMK A01 T00631034  RH  050%=      5-min Rain = 0
KCO1 131657Z 25002KT 06/M04 A3032 RMK A01 T00631035  RH  050%=      5-min Rain = 0
KCO1 131658Z 24002KT 06/M04 A3032 RMK A01 T00621035  RH  050%=      5-min Rain = 0
KCO1 131659Z 19003KT 06/M03 A3032 RMK A01 T00641033  RH  050%=      5-min Rain = 0
KCO1 131700Z 13002KT 07/M04 A3032 RMK A01 T00651035  RH  049%=      5-min Rain = 0
KCO1 131701Z 22001KT 07/M04 A3032 RMK A01 T00651035  RH  049%=      5-min Rain = 0
KCO1 131702Z 22001KT 07/M04 A3032 RMK A01 T00651035  RH  049%=      5-min Rain = 0
KCO1 131703Z 06001KT 07/M04 A3032 RMK A01 T00651035  RH  049%=      5-min Rain = 0
KCO1 131704Z 04002KT 07/M04 A3032 RMK A01 T00651035  RH  049%=      5-min Rain = 0
KCO1 131705Z 05002KT 07/M04 A3032 RMK A01 T00651036  RH  049%=      5-min Rain = 0
KCO1 131706Z 03001KT 06/M04 A3032 RMK A01 T00641036  RH  049%=      5-min Rain = 0
KCO1 131707Z 00000KT 06/M03 A3032 RMK A01 T00641034  RH  049%=      5-min Rain = 0
KCO1 131708Z 05001KT 07/M03 A3032 RMK A01 T00661034  RH  049%=      5-min Rain = 0
KCO1 131709Z 31000KT 07/M03 A3032 RMK A01 T00671034  RH  048%=      5-min Rain = 0
KCO1 131710Z 31001KT 07/M03 A3032 RMK A01 T00691033  RH  048%=      5-min Rain = 0
KCO1 131711Z 35001KT 07/M03 A3032 RMK A01 T00711033  RH  048%=      5-min Rain = 0
KCO1 131712Z 02001KT 07/M03 A3032 RMK A01 T00721032  RH  048%=      5-min Rain = 0
KCO1 131713Z 04002KT 07/M03 A3032 RMK A01 T00731031  RH  047%=      5-min Rain = 0
KCO1 131714Z 05002KT 07/M03 A3032 RMK A01 T00741032  RH  047%=      5-min Rain = 0
KCO1 131715Z 05001KT 08/M03 A3032 RMK A01 T00751032  RH  047%=      5-min Rain = 0
KCO1 131716Z 08001KT 08/M03 A3032 RMK A01 T00751034  RH  046%=      5-min Rain = 0
KCO1 131717Z 12001KT 08/M03 A3032 RMK A01 T00761034  RH  046%=      5-min Rain = 0
KCO1 131718Z 15001KT 08/M03 A3032 RMK A01 T00771034  RH  045%=      5-min Rain = 0
KCO1 131719Z 18001KT 08/M03 A3032 RMK A01 T00791031  RH  046%=      5-min Rain = 0
KCO1 131720Z 19002KT 08/M03 A3032 RMK A01 T00811031  RH  045%=      5-min Rain = 0
KCO1 131721Z 14001KT 08/M03 A3032 RMK A01 T00811031  RH  045%=      5-min Rain = 0
KCO1 131722Z 07001KT 08/M03 A3032 RMK A01 T00811032  RH  045%=      5-min Rain = 0
KCO1 131723Z 17001KT 08/M03 A3032 RMK A01 T00831031  RH  045%=      5-min Rain = 0
KCO1 131724Z 14003KT 09/M03 A3032 RMK A01 T00861029  RH  044%=      5-min Rain = 0
KCO1 131725Z 16004KT 09/M03 A3032 RMK A01 T00871031  RH  043%=      5-min Rain = 0
KCO1 131726Z 15004KT 09/M03 A3032 RMK A01 T00861032  RH  043%=      5-min Rain = 0
KCO1 131727Z 15004KT 08/M03 A3032 RMK A01 T00841032  RH  044%=      5-min Rain = 0
KCO1 131728Z 17003KT 08/M03 A3032 RMK A01 T00831032  RH  044%=      5-min Rain = 0
KCO1 131729Z 13002KT 08/M03 A3032 RMK A01 T00831030  RH  045%=      5-min Rain = 0
KCO1 131730Z 12003KT 09/M03 A3032 RMK A01 T00861029  RH  044%=      5-min Rain = 0
KCO1 131731Z 09001KT 09/M03 A3032 RMK A01 T00871030  RH  044%=      5-min Rain = 0
KCO1 131732Z 14003KT 09/M03 A3032 RMK A01 T00871031  RH  043%=      5-min Rain = 0
KCO1 131733Z 11002KT 09/M03 A3032 RMK A01 T00871031  RH  043%=      5-min Rain = 0
KCO1 131734Z 16002KT 09/M03 A3032 RMK A01 T00871031  RH  043%=      5-min Rain = 0
KCO1 131735Z 20003KT 09/M03 A3032 RMK A01 T00881029  RH  043%=      5-min Rain = 0
KCO1 131736Z 15003KT 09/M03 A3032 RMK A01 T00891029  RH  043%=      5-min Rain = 0
KCO1 131737Z 14004KT 09/M03 A3032 RMK A01 T00891030  RH  043%=      5-min Rain = 0
KCO1 131738Z 15003KT 09/M03 A3032 RMK A01 T00881031  RH  043%=      5-min Rain = 0
KCO1 131739Z 15002KT 09/M03 A3032 RMK A01 T00881032  RH  043%=      5-min Rain = 0
KCO1 131740Z 16001KT 09/M03 A3032 RMK A01 T00881031  RH  043%=      5-min Rain = 0
KCO1 131741Z 19002KT 09/M03 A3032 RMK A01 T00881031  RH  043%=      5-min Rain = 0
KCO1 131742Z 17004KT 09/M03 A3031 RMK A01 T00881030  RH  043%=      5-min Rain = 0
KCO1 131743Z 19003KT 09/M03 A3031 RMK A01 T00891030  RH  043%=      5-min Rain = 0
KCO1 131744Z 20001KT 09/M03 A3032 RMK A01 T00881032  RH  043%=      5-min Rain = 0
KCO1 131745Z 14004KT 09/M03 A3032 RMK A01 T00881030  RH  044%=      5-min Rain = 0
KCO1 131746Z 13005KT 09/M03 A3032 RMK A01 T00911028  RH  043%=      5-min Rain = 0
KCO1 131747Z 19004KT 09/M03 A3031 RMK A01 T00921030  RH  042%=      5-min Rain = 0
KCO1 131748Z 18004KT 09/M03 A3031 RMK A01 T00911031  RH  042%=      5-min Rain = 0
KCO1 131749Z 17004KT 09/M03 A3031 RMK A01 T00901029  RH  043%=      5-min Rain = 0
KCO1 131750Z 16005KT 09/M03 A3031 RMK A01 T00921029  RH  043%=      5-min Rain = 0
KCO1 131751Z 15005KT 09/M03 A3031 RMK A01 T00931029  RH  042%=      5-min Rain = 0
KCO1 131752Z 16003KT 09/M03 A3031 RMK A01 T00911031  RH  042%=      5-min Rain = 0
KCO1 131753Z 15004KT 09/M03 A3031 RMK A01 T00901030  RH  042%=      5-min Rain = 0
KCO1 131754Z 15002KT 09/M03 A3031 RMK A01 T00911031  RH  042%=      5-min Rain = 0
KCO1 131755Z 20003KT 09/M03 A3031 RMK A01 T00911031  RH  042%=      5-min Rain = 0
KCO1 131756Z 19005KT 09/M03 A3031 RMK A01 T00911030  RH  042%=      5-min Rain = 0
KCO1 131757Z 18006KT 09/M03 A3031 RMK A01 T00911029  RH  043%=      5-min Rain = 0
KCO1 131758Z 17004KT 09/M03 A3031 RMK A01 T00921029  RH  042%=      5-min Rain = 0
KCO1 131759Z 16003KT 09/M03 A3031 RMK A01 T00931029  RH  042%=      5-min Rain = 0
KCO1 131800Z 13003KT 09/M03 A3031 RMK A01 T00931030  RH  042%=      5-min Rain = 0
KCO1 131801Z 11002KT 09/M03 A3031 RMK A01 T00931030  RH  042%=      5-min Rain = 0
KCO1 131802Z 10001KT 09/M03 A3031 RMK A01 T00941029  RH  042%=      5-min Rain = 0
KCO1 131803Z 35000KT 10/M03 A3031 RMK A01 T00961028  RH  042%=      5-min Rain = 0
KCO1 131804Z 10002KT 10/M03 A303 RMK A01 T00961029  RH  041%=      5-min Rain = 0
KCO1 131805Z 12002KT 10/M03 A303 RMK A01 T00961029  RH  041%=      5-min Rain = 0
KCO1 131806Z 14004KT 10/M03 A303 RMK A01 T00971028  RH  041%=      5-min Rain = 0
KCO1 131807Z 12003KT 10/M03 A303 RMK A01 T01001027  RH  041%=      5-min Rain = 0
KCO1 131808Z 12002KT 10/M03 A303 RMK A01 T01031027  RH  040%=      5-min Rain = 0
KCO1 131809Z 13002KT 11/M03 A303 RMK A01 T01051026  RH  040%=      5-min Rain = 0
KCO1 131810Z 11002KT 11/M03 A303 RMK A01 T01071027  RH  039%=      5-min Rain = 0
KCO1 131811Z 14004KT 11/M03 A303 RMK A01 T01071028  RH  039%=      5-min Rain = 0
KCO1 131812Z 12003KT 11/M03 A303 RMK A01 T01081025  RH  039%=      5-min Rain = 0
KCO1 131813Z 13004KT 11/M03 A303 RMK A01 T01101026  RH  039%=      5-min Rain = 0
KCO1 131814Z 16004KT 11/M03 A303 RMK A01 T01091029  RH  038%=      5-min Rain = 0
KCO1 131815Z 15004KT 11/M03 A303 RMK A01 T01061030  RH  038%=      5-min Rain = 0
KCO1 131816Z 13004KT 11/M03 A303 RMK A01 T01061029  RH  039%=      5-min Rain = 0
KCO1 131817Z 12004KT 11/M03 A303 RMK A01 T01051029  RH  039%=      5-min Rain = 0
KCO1 131818Z 14003KT 10/M03 A303 RMK A01 T01041029  RH  039%=      5-min Rain = 0
KCO1 131819Z 11002KT 10/M03 A303 RMK A01 T01041029  RH  039%=      5-min Rain = 0
KCO1 131820Z 09001KT 10/M03 A303 RMK A01 T01041030  RH  039%=      5-min Rain = 0
KCO1 131821Z 11002KT 10/M03 A303 RMK A01 T01041029  RH  039%=      5-min Rain = 0
KCO1 131822Z 17003KT 11/M03 A303 RMK A01 T01061028  RH  039%=      5-min Rain = 0
KCO1 131823Z 19002KT 11/M03 A303 RMK A01 T01071027  RH  039%=      5-min Rain = 0
KCO1 131824Z 16003KT 11/M03 A303 RMK A01 T01071027  RH  039%=      5-min Rain = 0
KCO1 131825Z 13004KT 11/M03 A303 RMK A01 T01081027  RH  039%=      5-min Rain = 0
KCO1 131826Z 13004KT 11/M03 A303 RMK A01 T01091027  RH  039%=      5-min Rain = 0
KCO1 131827Z 14001KT 11/M03 A3029 RMK A01 T01091028  RH  038%=      5-min Rain = 0
KCO1 131828Z 09002KT 11/M03 A3029 RMK A01 T01091028  RH  038%=      5-min Rain = 0
KCO1 131829Z 12004KT 11/M03 A3029 RMK A01 T01101027  RH  038%=      5-min Rain = 0
KCO1 131830Z 17004KT 11/M03 A3029 RMK A01 T01111026  RH  038%=      5-min Rain = 0
KCO1 131831Z 18005KT 11/M03 A3029 RMK A01 T01121026  RH  038%=      5-min Rain = 0
KCO1 131832Z 17005KT 11/M03 A3029 RMK A01 T01121026  RH  038%=      5-min Rain = 0
KCO1 131833Z 16004KT 11/M03 A3029 RMK A01 T01111027  RH  038%=      5-min Rain = 0
KCO1 131834Z 16003KT 11/M03 A3029 RMK A01 T01121025  RH  038%=      5-min Rain = 0
KCO1 131835Z 21002KT 11/M03 A3029 RMK A01 T01141025  RH  038%=      5-min Rain = 0
KCO1 131836Z 19002KT 12/M03 A3029 RMK A01 T01151025  RH  037%=      5-min Rain = 0
KCO1 131837Z 19002KT 12/M03 A3029 RMK A01 T01161025  RH  037%=      5-min Rain = 0
KCO1 131838Z 16006KT 12/M03 A3029 RMK A01 T01161025  RH  037%=      5-min Rain = 0
KCO1 131839Z 15006KT 12/M02 A3029 RMK A01 T01171024  RH  037%=      5-min Rain = 0
KCO1 131840Z 15004KT 12/M03 A3029 RMK A01 T01171025  RH  037%=      5-min Rain = 0
KCO1 131841Z 14005KT 12/M03 A3029 RMK A01 T01161026  RH  037%=      5-min Rain = 0
KCO1 131842Z 17007KT 12/M02 A3029 RMK A01 T01161024  RH  037%=      5-min Rain = 0
KCO1 131843Z 19006KT 12/M02 A3029 RMK A01 T01181024  RH  037%=      5-min Rain = 0
KCO1 131844Z 17005KT 12/M03 A3029 RMK A01 T01171025  RH  037%=      5-min Rain = 0
KCO1 131845Z 18004KT 12/M03 A3029 RMK A01 T01171025  RH  037%=      5-min Rain = 0
KCO1 131846Z 20004KT 12/M02 A3029 RMK A01 T01181023  RH  037%=      5-min Rain = 0
KCO1 131847Z 18005KT 12/M02 A3029 RMK A01 T01211022  RH  037%=      5-min Rain = 0
KCO1 131848Z 17003KT 12/M02 A3029 RMK A01 T01211024  RH  036%=      5-min Rain = 0
KCO1 131849Z 19004KT 12/M02 A3029 RMK A01 T01211023  RH  036%=      5-min Rain = 0
KCO1 131850Z 20006KT 12/M02 A3029 RMK A01 T01221023  RH  036%=      5-min Rain = 0
KCO1 131851Z 18004KT 12/M02 A3029 RMK A01 T01231023  RH  036%=      5-min Rain = 0
KCO1 131852Z 15003KT 12/M02 A3029 RMK A01 T01231024  RH  036%=      5-min Rain = 0
KCO1 131853Z 10003KT 12/M02 A3029 RMK A01 T01241021  RH  036%=      5-min Rain = 0
KCO1 131854Z 10005KT 13/M02 A3028 RMK A01 T01281019  RH  036%=      5-min Rain = 0
KCO1 131855Z 13004KT 13/M02 A3028 RMK A01 T01301021  RH  035%=      5-min Rain = 0
KCO1 131856Z 11006KT 13/M02 A3028 RMK A01 T01281023  RH  035%=      5-min Rain = 0
KCO1 131857Z 11005KT 13/M02 A3028 RMK A01 T01271024  RH  035%=      5-min Rain = 0
KCO1 131858Z 11006KT 13/M02 A3028 RMK A01 T01251024  RH  035%=      5-min Rain = 0
KCO1 131859Z 15006KT 13/M02 A3028 RMK A01 T01251023  RH  036%=      5-min Rain = 0
KCO1 131900Z 16005KT 13/M02 A3028 RMK A01 T01251024  RH  035%=      5-min Rain = 0
KCO1 131901Z 15003KT 12/M03 A3028 RMK A01 T01241025  RH  035%=      5-min Rain = 0
KCO1 131902Z 13003KT 12/M02 A3028 RMK A01 T01221024  RH  036%=      5-min Rain = 0
KCO1 131903Z 10004KT 12/M02 A3028 RMK A01 T01231022  RH  036%=      5-min Rain = 0
KCO1 131904Z 10004KT 13/M02 A3028 RMK A01 T01271020  RH  036%=      5-min Rain = 0
KCO1 131905Z 13005KT 13/M02 A3028 RMK A01 T01291021  RH  035%=      5-min Rain = 0
KCO1 131906Z 13007KT 13/M02 A3028 RMK A01 T01291022  RH  035%=      5-min Rain = 0
KCO1 131907Z 14005KT 13/M02 A3028 RMK A01 T01311021  RH  035%=      5-min Rain = 0
KCO1 131908Z 13005KT 13/M02 A3028 RMK A01 T01331021  RH  034%=      5-min Rain = 0
KCO1 131909Z 16005KT 14/M02 A3028 RMK A01 T01351020  RH  034%=      5-min Rain = 0
KCO1 131910Z 15005KT 14/M02 A3028 RMK A01 T01351021  RH  034%=      5-min Rain = 0
KCO1 131911Z 16006KT 14/M02 A3028 RMK A01 T01351022  RH  034%=      5-min Rain = 0
KCO1 131912Z 16005KT 14/M02 A3028 RMK A01 T01351022  RH  034%=      5-min Rain = 0
KCO1 131913Z 12006KT 13/M02 A3028 RMK A01 T01341023  RH  034%=      5-min Rain = 0
KCO1 131914Z 11004KT 13/M02 A3028 RMK A01 T01341022  RH  034%=      5-min Rain = 0
KCO1 131915Z 14003KT 13/M02 A3027 RMK A01 T01331024  RH  034%=      5-min Rain = 0
KCO1 131916Z 14005KT 13/M02 A3027 RMK A01 T01341022  RH  034%=      5-min Rain = 0
KCO1 131917Z 15004KT 14/M02 A3027 RMK A01 T01371021  RH  034%=      5-min Rain = 0
KCO1 131918Z 14004KT 14/M02 A3027 RMK A01 T01381021  RH  033%=      5-min Rain = 0
KCO1 131919Z 10007KT 14/M02 A3027 RMK A01 T01401019  RH  033%=      5-min Rain = 0
KCO1 131920Z 10003KT 14/M02 A3027 RMK A01 T01411021  RH  033%=      5-min Rain = 0
KCO1 131921Z 10005KT 14/M02 A3027 RMK A01 T01411021  RH  032%=      5-min Rain = 0
KCO1 131922Z 11007KT 14/M02 A3027 RMK A01 T01411022  RH  032%=      5-min Rain = 0
KCO1 131923Z 13007KT 14/M02 A3027 RMK A01 T01401023  RH  032%=      5-min Rain = 0
KCO1 131924Z 15004KT 14/M02 A3027 RMK A01 T01401022  RH  032%=      5-min Rain = 0
KCO1 131925Z 17005KT 14/M02 A3027 RMK A01 T01411021  RH  033%=      5-min Rain = 0
KCO1 131926Z 18005KT 14/M02 A3027 RMK A01 T01411021  RH  033%=      5-min Rain = 0
KCO1 131927Z 20004KT 14/M02 A3026 RMK A01 T01411021  RH  033%=      5-min Rain = 0
KCO1 131928Z 19001KT 14/M02 A3026 RMK A01 T01411022  RH  032%=      5-min Rain = 0
KCO1 131929Z 14003KT 14/M02 A3026 RMK A01 T01411021  RH  033%=      5-min Rain = 0
KCO1 131930Z 12007KT 14/M02 A3026 RMK A01 T01421020  RH  032%=      5-min Rain = 0
KCO1 131931Z 13005KT 14/M02 A3026 RMK A01 T01441021  RH  032%=      5-min Rain = 0
KCO1 131932Z 10006KT 14/M02 A3026 RMK A01 T01431022  RH  032%=      5-min Rain = 0
KCO1 131933Z 10005KT 14/M02 A3026 RMK A01 T01421022  RH  032%=      5-min Rain = 0
KCO1 131934Z 10004KT 14/M02 A3025 RMK A01 T01421022  RH  032%=      5-min Rain = 0
KCO1 131935Z 11004KT 14/M02 A3025 RMK A01 T01421021  RH  032%=      5-min Rain = 0
KCO1 131936Z 10006KT 14/M02 A3025 RMK A01 T01441020  RH  032%=      5-min Rain = 0
KCO1 131937Z 09002KT 14/M02 A3025 RMK A01 T01441023  RH  032%=      5-min Rain = 0
KCO1 131938Z 10002KT 14/M02 A3025 RMK A01 T01441021  RH  032%=      5-min Rain = 0
KCO1 131939Z 17005KT 15/M02 A3025 RMK A01 T01461020  RH  032%=      5-min Rain = 0
KCO1 131940Z 13007KT 15/M02 A3025 RMK A01 T01481019  RH  032%=      5-min Rain = 0
KCO1 131941Z 13005KT 15/M02 A3026 RMK A01 T01501020  RH  031%=      5-min Rain = 0
KCO1 131942Z 13003KT 15/M02 A3026 RMK A01 T01481021  RH  031%=      5-min Rain = 0
KCO1 131943Z 14005KT 15/M02 A3026 RMK A01 T01491021  RH  031%=      5-min Rain = 0
KCO1 131944Z 15004KT 15/M02 A3026 RMK A01 T01491022  RH  031%=      5-min Rain = 0
KCO1 131945Z 15003KT 15/M02 A3026 RMK A01 T01471023  RH  031%=      5-min Rain = 0
KCO1 131946Z 14001KT 15/M02 A3026 RMK A01 T01461022  RH  031%=      5-min Rain = 0
KCO1 131947Z 09002KT 15/M02 A3026 RMK A01 T01471019  RH  032%=      5-min Rain = 0
KCO1 131948Z 12003KT 15/M02 A3026 RMK A01 T01481020  RH  031%=      5-min Rain = 0
KCO1 131949Z 13005KT 15/M02 A3026 RMK A01 T01521017  RH  031%=      5-min Rain = 0
KCO1 131950Z 14004KT 15/M02 A3026 RMK A01 T01531020  RH  030%=      5-min Rain = 0
KCO1 131951Z 15003KT 15/M02 A3026 RMK A01 T01511021  RH  030%=      5-min Rain = 0
KCO1 131952Z 14005KT 15/M02 A3025 RMK A01 T01511021  RH  031%=      5-min Rain = 0
KCO1 131953Z 14003KT 15/M02 A3025 RMK A01 T01511021  RH  031%=      5-min Rain = 0
KCO1 131954Z 16004KT 15/M02 A3025 RMK A01 T01511021  RH  031%=      5-min Rain = 0
KCO1 131955Z 15003KT 15/M02 A3025 RMK A01 T01521021  RH  030%=      5-min Rain = 0
KCO1 131956Z 14002KT 15/M02 A3025 RMK A01 T01521021  RH  030%=      5-min Rain = 0
KCO1 131957Z 12004KT 15/M02 A3025 RMK A01 T01521021  RH  030%=      5-min Rain = 0
KCO1 131958Z 14004KT 15/M02 A3025 RMK A01 T01531020  RH  030%=      5-min Rain = 0
KCO1 131959Z 09003KT 15/M02 A3025 RMK A01 T01531021  RH  030%=      5-min Rain = 0
KCO1 132000Z 09004KT 16/M02 A3025 RMK A01 T01551019  RH  030%=      5-min Rain = 0
KCO1 132001Z 08003KT 16/M02 A3025 RMK A01 T01581017  RH  030%=      5-min Rain = 0
KCO1 132002Z 10004KT 16/M02 A3025 RMK A01 T01601019  RH  029%=      5-min Rain = 0
KCO1 132003Z 09005KT 16/M02 A3025 RMK A01 T01601019  RH  029%=      5-min Rain = 0
KCO1 132004Z 10007KT 16/M02 A3025 RMK A01 T01601020  RH  029%=      5-min Rain = 0
KCO1 132005Z 12006KT 16/M02 A3024 RMK A01 T01561022  RH  029%=      5-min Rain = 0
KCO1 132006Z 11006KT 16/M02 A3024 RMK A01 T01551022  RH  030%=      5-min Rain = 0
KCO1 132007Z 10005KT 15/M02 A3024 RMK A01 T01541021  RH  030%=      5-min Rain = 0
KCO1 132008Z 10005KT 15/M02 A3024 RMK A01 T01531022  RH  030%=      5-min Rain = 0
KCO1 132009Z 09004KT 15/M02 A3024 RMK A01 T01531021  RH  030%=      5-min Rain = 0
KCO1 132010Z 09006KT 15/M02 A3024 RMK A01 T01531021  RH  030%=      5-min Rain = 0
KCO1 132011Z 14005KT 16/M02 A3024 RMK A01 T01561017  RH  030%=      5-min Rain = 0
KCO1 132012Z 15004KT 16/M02 A3024 RMK A01 T01601017  RH  030%=      5-min Rain = 0
KCO1 132013Z 15001KT 16/M02 A3024 RMK A01 T01601020  RH  029%=      5-min Rain = 0
KCO1 132014Z 13002KT 16/M02 A3024 RMK A01 T01601020  RH  029%=      5-min Rain = 0
KCO1 132015Z 14003KT 16/M02 A3024 RMK A01 T01621017  RH  029%=      5-min Rain = 0
KCO1 132016Z 14006KT 17/M02 A3024 RMK A01 T01651016  RH  029%=      5-min Rain = 0
KCO1 132017Z 15004KT 17/M02 A3024 RMK A01 T01651018  RH  029%=      5-min Rain = 0
KCO1 132018Z 17003KT 16/M02 A3024 RMK A01 T01631019  RH  029%=      5-min Rain = 0
KCO1 132019Z 17004KT 16/M02 A3024 RMK A01 T01621019  RH  029%=      5-min Rain = 0
KCO1 132020Z 15002KT 16/M02 A3024 RMK A01 T01611019  RH  029%=      5-min Rain = 0
KCO1 132021Z 15002KT 16/M02 A3024 RMK A01 T01601020  RH  029%=      5-min Rain = 0
KCO1 132022Z 10006KT 16/M02 A3024 RMK A01 T01601019  RH  029%=      5-min Rain = 0
KCO1 132023Z 09005KT 16/M02 A3024 RMK A01 T01611019  RH  029%=      5-min Rain = 0
KCO1 132024Z 07005KT 16/M02 A3024 RMK A01 T01621018  RH  029%=      5-min Rain = 0
KCO1 132025Z 07003KT 16/M02 A3024 RMK A01 T01621018  RH  029%=      5-min Rain = 0
KCO1 132026Z 08004KT 16/M02 A3024 RMK A01 T01631017  RH  029%=      5-min Rain = 0
KCO1 132027Z 06004KT 17/M02 A3023 RMK A01 T01651017  RH  029%=      5-min Rain = 0
KCO1 132028Z 09003KT 17/M02 A3023 RMK A01 T01651017  RH  029%=      5-min Rain = 0
KCO1 132029Z 10005KT 17/M02 A3023 RMK A01 T01671016  RH  029%=      5-min Rain = 0
KCO1 132030Z 10005KT 17/M02 A3023 RMK A01 T01691016  RH  028%=      5-min Rain = 0
KCO1 132031Z 09006KT 17/M02 A3023 RMK A01 T01681018  RH  028%=      5-min Rain = 0
KCO1 132032Z 10008KT 17/M02 A3023 RMK A01 T01681016  RH  028%=      5-min Rain = 0
KCO1 132033Z 11007KT 17/M02 A3023 RMK A01 T01691016  RH  028%=      5-min Rain = 0
KCO1 132034Z 11006KT 17/M02 A3023 RMK A01 T01691016  RH  028%=      5-min Rain = 0
KCO1 132035Z 11004KT 17/M02 A3023 RMK A01 T01681017  RH  028%=      5-min Rain = 0
KCO1 132036Z 09004KT 17/M02 A3023 RMK A01 T01651017  RH  029%=      5-min Rain = 0
KCO1 132037Z 10003KT 17/M02 A3023 RMK A01 T01661017  RH  029%=      5-min Rain = 0
KCO1 132038Z 13003KT 17/M02 A3023 RMK A01 T01661016  RH  029%=      5-min Rain = 0
KCO1 132039Z 14004KT 17/M01 A3023 RMK A01 T01691014  RH  029%=      5-min Rain = 0
KCO1 132040Z 13004KT 17/M01 A3023 RMK A01 T01721014  RH  028%=      5-min Rain = 0
KCO1 132041Z 12004KT 17/M02 A3023 RMK A01 T01731015  RH  028%=      5-min Rain = 0
KCO1 132042Z 09005KT 17/M02 A3023 RMK A01 T01711017  RH  028%=      5-min Rain = 0
KCO1 132043Z 06005KT 17/M02 A3023 RMK A01 T01691018  RH  028%=      5-min Rain = 0
KCO1 132044Z 05003KT 17/M02 A3023 RMK A01 T01681018  RH  028%=      5-min Rain = 0
KCO1 132045Z 08004KT 17/M02 A3023 RMK A01 T01671016  RH  029%=      5-min Rain = 0
KCO1 132046Z 17003KT 17/M01 A3023 RMK A01 T01701014  RH  028%=      5-min Rain = 0
KCO1 132047Z 14004KT 17/M02 A3023 RMK A01 T01731015  RH  028%=      5-min Rain = 0
KCO1 132048Z 12006KT 17/M01 A3023 RMK A01 T01741014  RH  028%=      5-min Rain = 0
KCO1 132049Z 10005KT 17/M02 A3022 RMK A01 T01731016  RH  028%=      5-min Rain = 0
KCO1 132050Z 09004KT 17/M02 A3022 RMK A01 T01711015  RH  028%=      5-min Rain = 0
KCO1 132051Z 13002KT 17/M02 A3022 RMK A01 T01711015  RH  028%=      5-min Rain = 0
KCO1 132052Z 09004KT 17/M01 A3022 RMK A01 T01711013  RH  028%=      5-min Rain = 0
KCO1 132053Z 11007KT 17/M01 A3022 RMK A01 T01741013  RH  028%=      5-min Rain = 0
KCO1 132054Z 11004KT 17/M02 A3022 RMK A01 T01741015  RH  028%=      5-min Rain = 0
KCO1 132055Z 08002KT 17/M02 A3022 RMK A01 T01721016  RH  028%=      5-min Rain = 0
KCO1 132056Z 11003KT 17/M02 A3022 RMK A01 T01711016  RH  028%=      5-min Rain = 0
KCO1 132057Z 14004KT 17/M02 A3022 RMK A01 T01731015  RH  028%=      5-min Rain = 0
KCO1 132058Z 15005KT 17/M02 A3022 RMK A01 T01741015  RH  027%=      5-min Rain = 0
KCO1 132059Z 12007KT 18/M01 A3022 RMK A01 T01751014  RH  028%=      5-min Rain = 0
KCO1 132100Z 13006KT 18/M01 A3022 RMK A01 T01781012  RH  028%=      5-min Rain = 0
KCO1 132101Z 14006KT 18/M01 A3022 RMK A01 T01791014  RH  027%=      5-min Rain = 0
KCO1 132102Z 16005KT 18/M02 A3022 RMK A01 T01781015  RH  027%=      5-min Rain = 0
KCO1 132103Z 13005KT 18/M02 A3022 RMK A01 T01761015  RH  027%=      5-min Rain = 0
KCO1 132104Z 12004KT 18/M01 A3022 RMK A01 T01761014  RH  027%=      5-min Rain = 0
KCO1 132105Z 11002KT 18/M01 A3022 RMK A01 T01761014  RH  027%=      5-min Rain = 0
KCO1 132106Z 10003KT 18/M01 A3022 RMK A01 T01771014  RH  027%=      5-min Rain = 0
KCO1 132107Z 12004KT 18/M01 A3022 RMK A01 T01791013  RH  027%=      5-min Rain = 0
KCO1 132108Z 12004KT 18/M01 A3022 RMK A01 T01801014  RH  027%=      5-min Rain = 0
KCO1 132109Z 13004KT 18/M02 A3022 RMK A01 T01791015  RH  027%=      5-min Rain = 0
KCO1 132110Z 11002KT 18/M02 A3022 RMK A01 T01771015  RH  027%=      5-min Rain = 0
KCO1 132111Z 11000KT 18/M02 A3022 RMK A01 T01761015  RH  027%=      5-min Rain = 0
KCO1 132112Z 28000KT 18/M01 A3022 RMK A01 T01771014  RH  027%=      5-min Rain = 0
KCO1 132113Z 15002KT 18/M01 A3022 RMK A01 T01781012  RH  027%=      5-min Rain = 0
KCO1 132114Z 17006KT 18/M01 A3022 RMK A01 T01791013  RH  027%=      5-min Rain = 0
KCO1 132115Z 17006KT 18/M02 A3022 RMK A01 T01781015  RH  027%=      5-min Rain = 0
KCO1 132116Z 16006KT 18/M01 A3022 RMK A01 T01771014  RH  027%=      5-min Rain = 0
KCO1 132117Z 16004KT 18/M02 A3022 RMK A01 T01771015  RH  027%=      5-min Rain = 0
KCO1 132118Z 17005KT 18/M01 A3022 RMK A01 T01781014  RH  027%=      5-min Rain = 0
KCO1 132119Z 17004KT 18/M01 A3022 RMK A01 T01791013  RH  027%=      5-min Rain = 0
KCO1 132120Z 18005KT 18/M01 A3022 RMK A01 T01801013  RH  027%=      5-min Rain = 0
KCO1 132121Z 16005KT 18/M01 A3022 RMK A01 T01821011  RH  027%=      5-min Rain = 0
KCO1 132122Z 14004KT 19/M01 A3022 RMK A01 T01851012  RH  026%=      5-min Rain = 0
KCO1 132123Z 16004KT 18/M01 A3022 RMK A01 T01841013  RH  026%=      5-min Rain = 0
KCO1 132124Z 14006KT 18/M01 A3022 RMK A01 T01831013  RH  026%=      5-min Rain = 0
KCO1 132125Z 15005KT 18/M01 A3022 RMK A01 T01841012  RH  026%=      5-min Rain = 0
KCO1 132126Z 15006KT 19/M01 A3022 RMK A01 T01851012  RH  026%=      5-min Rain = 0
KCO1 132127Z 14006KT 19/M01 A3022 RMK A01 T01851013  RH  026%=      5-min Rain = 0
KCO1 132128Z 13006KT 18/M01 A3022 RMK A01 T01841013  RH  026%=      5-min Rain = 0
KCO1 132129Z 14004KT 18/M01 A3022 RMK A01 T01831012  RH  027%=      5-min Rain = 0
KCO1 132130Z 13004KT 18/M01 A3022 RMK A01 T01841013  RH  026%=      5-min Rain = 0
KCO1 132131Z 12007KT 19/M01 A3022 RMK A01 T01851012  RH  026%=      5-min Rain = 0
KCO1 132132Z 10005KT 18/M01 A3022 RMK A01 T01841012  RH  027%=      5-min Rain = 0
KCO1 132133Z 10003KT 18/M01 A3022 RMK A01 T01831012  RH  027%=      5-min Rain = 0
KCO1 132134Z 12004KT 18/M01 A3022 RMK A01 T01831012  RH  027%=      5-min Rain = 0
KCO1 132135Z 15004KT 18/M01 A3022 RMK A01 T01831012  RH  027%=      5-min Rain = 0
KCO1 132136Z 14003KT 18/M01 A3022 RMK A01 T01841010  RH  027%=      5-min Rain = 0
KCO1 132137Z 14004KT 19/M01 A3021 RMK A01 T01861009  RH  027%=      5-min Rain = 0
KCO1 132138Z 14005KT 19/M01 A3021 RMK A01 T01871010  RH  026%=      5-min Rain = 0
KCO1 132139Z 14006KT 19/M01 A3021 RMK A01 T01881009  RH  026%=      5-min Rain = 0
KCO1 132140Z 15005KT 19/M01 A3021 RMK A01 T01891010  RH  026%=      5-min Rain = 0
KCO1 132141Z 14004KT 19/M01 A3021 RMK A01 T01881010  RH  026%=      5-min Rain = 0
KCO1 132142Z 13006KT 19/M01 A3021 RMK A01 T01881009  RH  026%=      5-min Rain = 0
KCO1 132143Z 14005KT 19/M01 A3021 RMK A01 T01891009  RH  026%=      5-min Rain = 0
KCO1 132144Z 13005KT 19/M01 A3021 RMK A01 T01891009  RH  026%=      5-min Rain = 0
KCO1 132145Z 15004KT 19/M01 A3021 RMK A01 T01891009  RH  026%=      5-min Rain = 0
KCO1 132146Z 11003KT 19/M01 A3021 RMK A01 T01911008  RH  026%=      5-min Rain = 0
KCO1 132147Z 09005KT 19/M01 A3021 RMK A01 T01921007  RH  026%=      5-min Rain = 0
KCO1 132148Z 08005KT 19/M01 A3021 RMK A01 T01921007  RH  026%=      5-min Rain = 0
KCO1 132149Z 07004KT 19/M01 A3021 RMK A01 T01901010  RH  026%=      5-min Rain = 0
KCO1 132150Z 07004KT 19/M01 A3021 RMK A01 T01871009  RH  026%=      5-min Rain = 0
KCO1 132151Z 09004KT 19/M01 A3021 RMK A01 T01871009  RH  027%=      5-min Rain = 0
KCO1 132152Z 11003KT 19/M01 A3021 RMK A01 T01871008  RH  027%=      5-min Rain = 0
KCO1 132153Z 11003KT 19/M01 A3021 RMK A01 T01871008  RH  027%=      5-min Rain = 0
KCO1 132154Z 07003KT 19/M01 A3021 RMK A01 T01871008  RH  027%=      5-min Rain = 0
KCO1 132155Z 06004KT 19/M01 A3021 RMK A01 T01871008  RH  027%=      5-min Rain = 0
KCO1 132156Z 08004KT 19/M01 A3021 RMK A01 T01871008  RH  027%=      5-min Rain = 0
KCO1 132157Z 10003KT 19/M01 A3021 RMK A01 T01871007  RH  027%=      5-min Rain = 0
KCO1 132158Z 10003KT 19/M01 A3021 RMK A01 T01891006  RH  027%=      5-min Rain = 0
KCO1 132159Z 13003KT 19/M01 A3021 RMK A01 T01911005  RH  027%=      5-min Rain = 0
KCO1 132200Z 13004KT 19/M01 A3021 RMK A01 T01921005  RH  026%=      5-min Rain = 0
KCO1 132201Z 11003KT 19/M01 A3021 RMK A01 T01931006  RH  026%=      5-min Rain = 0
KCO1 132202Z 14004KT 19/M01 A3021 RMK A01 T01921006  RH  026%=      5-min Rain = 0
KCO1 132203Z 13006KT 19/M01 A3021 RMK A01 T01931005  RH  026%=      5-min Rain = 0
KCO1 132204Z 13004KT 19/M01 A3021 RMK A01 T01941005  RH  026%=      5-min Rain = 0
KCO1 132205Z 13004KT 19/M01 A3021 RMK A01 T01941005  RH  026%=      5-min Rain = 0
KCO1 132206Z 11003KT 20/M00 A3021 RMK A01 T01951003  RH  026%=      5-min Rain = 0
KCO1 132207Z 14004KT 20/M00 A3021 RMK A01 T01961004  RH  026%=      5-min Rain = 0
KCO1 132208Z 11005KT 20/M01 A3021 RMK A01 T01951005  RH  026%=      5-min Rain = 0
KCO1 132209Z 10004KT 19/M01 A3021 RMK A01 T01931005  RH  026%=      5-min Rain = 0
KCO1 132210Z 14004KT 19/M01 A3021 RMK A01 T01911005  RH  027%=      5-min Rain = 0
KCO1 132211Z 14003KT 19/M01 A3021 RMK A01 T01901005  RH  027%=      5-min Rain = 0
KCO1 132212Z 13003KT 19/M01 A3021 RMK A01 T01901005  RH  027%=      5-min Rain = 0
KCO1 132213Z 14003KT 19/M01 A3021 RMK A01 T01891005  RH  027%=      5-min Rain = 0
KCO1 132214Z 14002KT 19/M01 A3021 RMK A01 T01881005  RH  027%=      5-min Rain = 0
KCO1 132215Z 13004KT 19/M01 A3021 RMK A01 T01881005  RH  027%=      5-min Rain = 0
KCO1 132216Z 13003KT 19/M00 A3021 RMK A01 T01891004  RH  027%=      5-min Rain = 0
KCO1 132217Z 11002KT 19/M00 A3021 RMK A01 T01891004  RH  027%=      5-min Rain = 0
KCO1 132218Z 11003KT 19/M00 A3021 RMK A01 T01891004  RH  027%=      5-min Rain = 0
KCO1 132219Z 09003KT 19/M00 A3021 RMK A01 T01901003  RH  027%=      5-min Rain = 0
KCO1 132220Z 10005KT 19/M00 A3021 RMK A01 T01911002  RH  027%=      5-min Rain = 0
KCO1 132221Z 10004KT 19/M00 A3021 RMK A01 T01921002  RH  027%=      5-min Rain = 0
KCO1 132222Z 12002KT 19/M00 A3021 RMK A01 T01921003  RH  027%=      5-min Rain = 0
KCO1 132223Z 12006KT 19/M00 A3021 RMK A01 T01921002  RH  027%=      5-min Rain = 0
KCO1 132224Z 12006KT 19/00 A3021 RMK A01 T019300-0  RH  027%=      5-min Rain = 0
KCO1 132225Z 13006KT 19/00 A3021 RMK A01 T019300-0  RH  027%=      5-min Rain = 0
KCO1 132226Z 12005KT 19/00 A3021 RMK A01 T01940000  RH  027%=      5-min Rain = 0
KCO1 132227Z 13006KT 19/00 A3021 RMK A01 T019300-0  RH  027%=      5-min Rain = 0
KCO1 132228Z 12005KT 19/00 A3021 RMK A01 T019300-0  RH  027%=      5-min Rain = 0
KCO1 132229Z 10005KT 19/00 A3021 RMK A01 T019200-0  RH  027%=      5-min Rain = 0
KCO1 132230Z 12005KT 19/00 A3021 RMK A01 T01920000  RH  028%=      5-min Rain = 0
KCO1 132231Z 12005KT 19/00 A3021 RMK A01 T01920001  RH  028%=      5-min Rain = 0
KCO1 132232Z 12007KT 19/00 A3021 RMK A01 T01920001  RH  028%=      5-min Rain = 0
KCO1 132233Z 12006KT 19/00 A3021 RMK A01 T01920002  RH  028%=      5-min Rain = 0
KCO1 132234Z 12006KT 19/00 A3021 RMK A01 T01930002  RH  028%=      5-min Rain = 0
KCO1 132235Z 11005KT 20/00 A3021 RMK A01 T01950004  RH  028%=      5-min Rain = 0
KCO1 132236Z 09005KT 20/00 A3021 RMK A01 T01970004  RH  027%=      5-min Rain = 0
KCO1 132237Z 08004KT 20/00 A3021 RMK A01 T01980003  RH  027%=      5-min Rain = 0
KCO1 132238Z 08005KT 20/00 A3021 RMK A01 T01990004  RH  027%=      5-min Rain = 0
KCO1 132239Z 11005KT 20/00 A3021 RMK A01 T01990003  RH  027%=      5-min Rain = 0
KCO1 132240Z 11006KT 20/00 A3021 RMK A01 T01990003  RH  027%=      5-min Rain = 0
KCO1 132241Z 10004KT 20/00 A3021 RMK A01 T01980003  RH  027%=      5-min Rain = 0
KCO1 132242Z 11004KT 20/00 A3021 RMK A01 T01960002  RH  027%=      5-min Rain = 0
KCO1 132243Z 12004KT 20/00 A3021 RMK A01 T01950002  RH  027%=      5-min Rain = 0
KCO1 132244Z 12005KT 20/00 A3021 RMK A01 T01950003  RH  028%=      5-min Rain = 0
KCO1 132245Z 10007KT 20/00 A3021 RMK A01 T01950004  RH  028%=      5-min Rain = 0
KCO1 132246Z 10006KT 20/00 A3021 RMK A01 T01950004  RH  028%=      5-min Rain = 0
KCO1 132247Z 10006KT 19/00 A3021 RMK A01 T01940004  RH  028%=      5-min Rain = 0
KCO1 132248Z 10005KT 19/00 A3021 RMK A01 T01940004  RH  028%=      5-min Rain = 0
KCO1 132249Z 11004KT 19/00 A3021 RMK A01 T01930004  RH  028%=      5-min Rain = 0
KCO1 132250Z 11003KT 19/01 A3021 RMK A01 T01930005  RH  028%=      5-min Rain = 0
KCO1 132251Z 12004KT 19/00 A302 RMK A01 T01920004  RH  028%=      5-min Rain = 0
KCO1 132252Z 11006KT 19/01 A302 RMK A01 T01920005  RH  028%=      5-min Rain = 0
KCO1 132253Z 10007KT 19/01 A302 RMK A01 T01920005  RH  029%=      5-min Rain = 0
KCO1 132254Z 10007KT 19/01 A302 RMK A01 T01920005  RH  029%=      5-min Rain = 0
KCO1 132255Z 10007KT 19/01 A302 RMK A01 T01920005  RH  029%=      5-min Rain = 0
KCO1 132256Z 12008KT 19/01 A302 RMK A01 T01910006  RH  029%=      5-min Rain = 0
KCO1 132257Z 11007KT 19/01 A302 RMK A01 T01910006  RH  029%=      5-min Rain = 0
KCO1 132258Z 10008KT 19/01 A302 RMK A01 T01910006  RH  029%=      5-min Rain = 0
KCO1 132259Z 11008KT 19/01 A302 RMK A01 T01900006  RH  029%=      5-min Rain = 0
KCO1 132300Z 11007KT 19/01 A302 RMK A01 T01900006  RH  029%=      5-min Rain = 0
KCO1 132301Z 11007KT 19/01 A302 RMK A01 T01900007  RH  029%=      5-min Rain = 0
KCO1 132302Z 12005KT 19/01 A302 RMK A01 T01900007  RH  029%=      5-min Rain = 0
KCO1 132303Z 12006KT 19/01 A302 RMK A01 T01890007  RH  029%=      5-min Rain = 0
KCO1 132304Z 13005KT 19/01 A302 RMK A01 T01900007  RH  029%=      5-min Rain = 0
KCO1 132305Z 11006KT 19/01 A302 RMK A01 T01900007  RH  029%=      5-min Rain = 0
KCO1 132306Z 11007KT 19/01 A3021 RMK A01 T01900007  RH  029%=      5-min Rain = 0
KCO1 132307Z 10006KT 19/01 A3021 RMK A01 T01890007  RH  029%=      5-min Rain = 0
KCO1 132308Z 11005KT 19/01 A3021 RMK A01 T01890007  RH  029%=      5-min Rain = 0
KCO1 132309Z 10007KT 19/01 A3021 RMK A01 T01890008  RH  029%=      5-min Rain = 0
KCO1 132310Z 11006KT 19/01 A3021 RMK A01 T01890007  RH  029%=      5-min Rain = 0
KCO1 132311Z 12006KT 19/01 A3021 RMK A01 T01890008  RH  030%=      5-min Rain = 0
KCO1 132312Z 11007KT 19/01 A3021 RMK A01 T01890008  RH  030%=      5-min Rain = 0
KCO1 132313Z 10007KT 19/01 A3021 RMK A01 T01900009  RH  030%=      5-min Rain = 0
KCO1 132314Z 11007KT 19/01 A3021 RMK A01 T01890008  RH  030%=      5-min Rain = 0
KCO1 132315Z 12006KT 19/01 A3021 RMK A01 T01890009  RH  030%=      5-min Rain = 0
KCO1 132316Z 12007KT 19/01 A3021 RMK A01 T01890009  RH  030%=      5-min Rain = 0
KCO1 132317Z 12007KT 19/01 A3021 RMK A01 T01890009  RH  030%=      5-min Rain = 0
KCO1 132318Z 12007KT 19/01 A3021 RMK A01 T01890009  RH  030%=      5-min Rain = 0
KCO1 132319Z 11007KT 19/01 A3021 RMK A01 T01880009  RH  030%=      5-min Rain = 0
KCO1 132320Z 11006KT 19/01 A3021 RMK A01 T01890009  RH  030%=      5-min Rain = 0
KCO1 132321Z 11006KT 19/01 A3021 RMK A01 T01880010  RH  030%=      5-min Rain = 0
KCO1 132322Z 10005KT 19/01 A3021 RMK A01 T01890010  RH  030%=      5-min Rain = 0
KCO1 132323Z 11006KT 19/01 A3021 RMK A01 T01880009  RH  030%=      5-min Rain = 0
KCO1 132324Z 11006KT 19/01 A3021 RMK A01 T01880010  RH  030%=      5-min Rain = 0
KCO1 132325Z 11006KT 19/01 A3021 RMK A01 T01880009  RH  030%=      5-min Rain = 0
KCO1 132326Z 11005KT 19/01 A3021 RMK A01 T01880009  RH  030%=      5-min Rain = 0
KCO1 132327Z 12006KT 19/01 A3021 RMK A01 T01880009  RH  030%=      5-min Rain = 0
KCO1 132328Z 12007KT 19/01 A3021 RMK A01 T01880009  RH  030%=      5-min Rain = 0
KCO1 132329Z 11007KT 19/01 A3021 RMK A01 T01880009  RH  030%=      5-min Rain = 0
KCO1 132330Z 11007KT 19/01 A3021 RMK A01 T01880009  RH  030%=      5-min Rain = 0
KCO1 132331Z 11007KT 19/01 A3021 RMK A01 T01880009  RH  030%=      5-min Rain = 0
KCO1 132332Z 10007KT 19/01 A3021 RMK A01 T01880009  RH  030%=      5-min Rain = 0
KCO1 132333Z 10007KT 19/01 A3021 RMK A01 T01880009  RH  030%=      5-min Rain = 0
KCO1 132334Z 10007KT 19/01 A3021 RMK A01 T01880009  RH  030%=      5-min Rain = 0
KCO1 132335Z 10006KT 19/01 A3021 RMK A01 T01880009  RH  030%=      5-min Rain = 0
KCO1 132336Z 10006KT 19/01 A3021 RMK A01 T01870009  RH  030%=      5-min Rain = 0
KCO1 132337Z 10006KT 19/01 A3021 RMK A01 T01870009  RH  030%=      5-min Rain = 0
KCO1 132338Z 09006KT 19/01 A3021 RMK A01 T01870009  RH  030%=      5-min Rain = 0
KCO1 132339Z 09006KT 19/01 A3021 RMK A01 T01870010  RH  030%=      5-min Rain = 0
KCO1 132340Z 09006KT 19/01 A3021 RMK A01 T01860010  RH  031%=      5-min Rain = 0
KCO1 132341Z 10005KT 19/01 A3021 RMK A01 T01860010  RH  031%=      5-min Rain = 0
KCO1 132342Z 10007KT 19/01 A3021 RMK A01 T01850010  RH  031%=      5-min Rain = 0
KCO1 132343Z 10006KT 19/01 A3021 RMK A01 T01850010  RH  031%=      5-min Rain = 0
KCO1 132344Z 09005KT 19/01 A3021 RMK A01 T01860010  RH  031%=      5-min Rain = 0
KCO1 132345Z 10004KT 19/01 A3021 RMK A01 T01850010  RH  031%=      5-min Rain = 0
KCO1 132346Z 09004KT 19/01 A3021 RMK A01 T01850010  RH  031%=      5-min Rain = 0
KCO1 132347Z 09004KT 19/01 A3021 RMK A01 T01850010  RH  031%=      5-min Rain = 0
KCO1 132348Z 10004KT 19/01 A3021 RMK A01 T01850010  RH  031%=      5-min Rain = 0
KCO1 132349Z 10005KT 18/01 A3021 RMK A01 T01840010  RH  031%=      5-min Rain = 0
KCO1 132350Z 10006KT 18/01 A3021 RMK A01 T01840010  RH  031%=      5-min Rain = 0
KCO1 132351Z 10005KT 18/01 A3021 RMK A01 T01840011  RH  031%=      5-min Rain = 0
KCO1 132352Z 10005KT 18/01 A3021 RMK A01 T01840011  RH  031%=      5-min Rain = 0
KCO1 132353Z 10005KT 18/01 A3021 RMK A01 T01840011  RH  031%=      5-min Rain = 0
KCO1 132354Z 11005KT 18/01 A3021 RMK A01 T01840010  RH  031%=      5-min Rain = 0
KCO1 132355Z 10005KT 18/01 A3021 RMK A01 T01840011  RH  031%=      5-min Rain = 0
KCO1 132356Z 10005KT 18/01 A3021 RMK A01 T01840011  RH  031%=      5-min Rain = 0
KCO1 132357Z 10005KT 18/01 A3021 RMK A01 T01840011  RH  031%=      5-min Rain = 0
KCO1 132358Z 10005KT 18/01 A3021 RMK A01 T01830010  RH  031%=      5-min Rain = 0
KCO1 132359Z 11005KT 18/01 A3021 RMK A01 T01830011  RH  031%=      5-min Rain = 0
KCO1 140000Z 10004KT 18/01 A3021 RMK A01 T01830011  RH  031%=      5-min Rain = 0
KCO1 140001Z 10004KT 18/01 A3021 RMK A01 T01840011  RH  031%=      5-min Rain = 0
KCO1 140002Z 10005KT 18/01 A3021 RMK A01 T01830011  RH  031%=      5-min Rain = 0
KCO1 140003Z 10005KT 18/01 A3021 RMK A01 T01830011  RH  031%=      5-min Rain = 0
KCO1 140004Z 10005KT 18/01 A3022 RMK A01 T01820011  RH  032%=      5-min Rain = 0
KCO1 140005Z 10005KT 18/01 A3022 RMK A01 T01820011  RH  032%=      5-min Rain = 0
KCO1 140006Z 10005KT 18/01 A3022 RMK A01 T01820011  RH  032%=      5-min Rain = 0
KCO1 140007Z 10004KT 18/01 A3022 RMK A01 T01820011  RH  032%=      5-min Rain = 0
KCO1 140008Z 10004KT 18/01 A3022 RMK A01 T01820011  RH  032%=      5-min Rain = 0
KCO1 140009Z 10004KT 18/01 A3022 RMK A01 T01820011  RH  031%=      5-min Rain = 0
KCO1 140010Z 09004KT 18/01 A3022 RMK A01 T01830011  RH  031%=      5-min Rain = 0
KCO1 140011Z 09004KT 18/01 A3022 RMK A01 T01830011  RH  031%=      5-min Rain = 0
KCO1 140012Z 09004KT 18/01 A3022 RMK A01 T01830011  RH  031%=      5-min Rain = 0
KCO1 140013Z 09004KT 18/01 A3022 RMK A01 T01820011  RH  032%=      5-min Rain = 0
KCO1 140014Z 09004KT 18/01 A3022 RMK A01 T01820011  RH  032%=      5-min Rain = 0
KCO1 140015Z 09003KT 18/01 A3022 RMK A01 T01810011  RH  032%=      5-min Rain = 0
KCO1 140016Z 09003KT 18/01 A3022 RMK A01 T01800010  RH  032%=      5-min Rain = 0
KCO1 140017Z 09004KT 18/01 A3022 RMK A01 T01790011  RH  032%=      5-min Rain = 0
KCO1 140018Z 08004KT 18/01 A3022 RMK A01 T01790011  RH  032%=      5-min Rain = 0
KCO1 140019Z 08004KT 18/01 A3022 RMK A01 T01780011  RH  032%=      5-min Rain = 0
KCO1 140020Z 08004KT 18/01 A3022 RMK A01 T01770011  RH  033%=      5-min Rain = 0
KCO1 140021Z 08004KT 18/01 A3022 RMK A01 T01760011  RH  033%=      5-min Rain = 0
KCO1 140022Z 09003KT 18/01 A3022 RMK A01 T01760011  RH  033%=      5-min Rain = 0
KCO1 140023Z 10003KT 18/01 A3022 RMK A01 T01760011  RH  033%=      5-min Rain = 0
KCO1 140024Z 11003KT 18/01 A3022 RMK A01 T01760011  RH  033%=      5-min Rain = 0
KCO1 140025Z 10003KT 18/01 A3022 RMK A01 T01760011  RH  033%=      5-min Rain = 0
KCO1 140026Z 09003KT 18/01 A3022 RMK A01 T01750011  RH  033%=      5-min Rain = 0
KCO1 140027Z 08004KT 18/01 A3021 RMK A01 T01750011  RH  033%=      5-min Rain = 0
KCO1 140028Z 07005KT 17/01 A3021 RMK A01 T01730010  RH  033%=      5-min Rain = 0
KCO1 140029Z 07004KT 17/01 A3021 RMK A01 T01720010  RH  033%=      5-min Rain = 0
KCO1 140030Z 07004KT 17/01 A3021 RMK A01 T01710009  RH  034%=      5-min Rain = 0
KCO1 140031Z 08003KT 17/01 A3021 RMK A01 T01690009  RH  034%=      5-min Rain = 0
KCO1 140032Z 08003KT 17/01 A3021 RMK A01 T01690009  RH  034%=      5-min Rain = 0
KCO1 140033Z 08003KT 17/01 A3022 RMK A01 T01690010  RH  034%=      5-min Rain = 0
KCO1 140034Z 09003KT 17/01 A3022 RMK A01 T01680010  RH  034%=      5-min Rain = 0
KCO1 140035Z 09003KT 17/01 A3022 RMK A01 T01680010  RH  034%=      5-min Rain = 0
KCO1 140036Z 09004KT 17/01 A3022 RMK A01 T01680010  RH  034%=      5-min Rain = 0
KCO1 140037Z 08004KT 17/01 A3022 RMK A01 T01670010  RH  035%=      5-min Rain = 0
KCO1 140038Z 08004KT 17/01 A3022 RMK A01 T01670010  RH  035%=      5-min Rain = 0
KCO1 140039Z 08004KT 17/01 A3022 RMK A01 T01660009  RH  035%=      5-min Rain = 0
KCO1 140040Z 07003KT 16/01 A3022 RMK A01 T01640008  RH  035%=      5-min Rain = 0
KCO1 140041Z 07003KT 16/01 A3022 RMK A01 T01630008  RH  035%=      5-min Rain = 0
KCO1 140042Z 07002KT 16/01 A3022 RMK A01 T01630008  RH  035%=      5-min Rain = 0
KCO1 140043Z 07002KT 16/01 A3022 RMK A01 T01620008  RH  035%=      5-min Rain = 0
KCO1 140044Z 07003KT 16/01 A3022 RMK A01 T01610009  RH  035%=      5-min Rain = 0
KCO1 140045Z 07003KT 16/01 A3022 RMK A01 T01610009  RH  036%=      5-min Rain = 0
KCO1 140046Z 07004KT 16/01 A3022 RMK A01 T01600009  RH  036%=      5-min Rain = 0
KCO1 140047Z 07004KT 16/01 A3022 RMK A01 T01600009  RH  036%=      5-min Rain = 0
KCO1 140048Z 06004KT 16/01 A3022 RMK A01 T01600008  RH  036%=      5-min Rain = 0
KCO1 140049Z 07004KT 16/01 A3022 RMK A01 T01590008  RH  036%=      5-min Rain = 0
KCO1 140050Z 07003KT 16/01 A3022 RMK A01 T01580007  RH  036%=      5-min Rain = 0
KCO1 140051Z 07003KT 16/01 A3022 RMK A01 T01570007  RH  036%=      5-min Rain = 0
KCO1 140052Z 07003KT 16/01 A3022 RMK A01 T01570008  RH  036%=      5-min Rain = 0
KCO1 140053Z 07003KT 16/01 A3022 RMK A01 T01560008  RH  037%=      5-min Rain = 0
KCO1 140054Z 06003KT 16/01 A3022 RMK A01 T01560008  RH  037%=      5-min Rain = 0
KCO1 140055Z 06004KT 16/01 A3022 RMK A01 T01560009  RH  037%=      5-min Rain = 0
KCO1 140056Z 06004KT 16/01 A3022 RMK A01 T01550008  RH  037%=      5-min Rain = 0
KCO1 140057Z 06004KT 16/01 A3022 RMK A01 T01550009  RH  037%=      5-min Rain = 0
KCO1 140058Z 06005KT 15/01 A3022 RMK A01 T01540009  RH  037%=      5-min Rain = 0
KCO1 140059Z 06004KT 15/01 A3022 RMK A01 T01530009  RH  037%=      5-min Rain = 0
KCO1 140100Z 06004KT 15/01 A3023 RMK A01 T01520009  RH  038%=      5-min Rain = 0
KCO1 140101Z 06004KT 15/01 A3023 RMK A01 T01520010  RH  038%=      5-min Rain = 0
KCO1 140102Z 06004KT 15/01 A3023 RMK A01 T01520010  RH  038%=      5-min Rain = 0
KCO1 140103Z 06004KT 15/01 A3023 RMK A01 T01520011  RH  038%=      5-min Rain = 0
KCO1 140104Z 06004KT 15/01 A3023 RMK A01 T01520010  RH  038%=      5-min Rain = 0
KCO1 140105Z 06004KT 15/01 A3023 RMK A01 T01520010  RH  038%=      5-min Rain = 0
KCO1 140106Z 06004KT 15/01 A3023 RMK A01 T01520010  RH  038%=      5-min Rain = 0
KCO1 140107Z 06004KT 15/01 A3023 RMK A01 T01530010  RH  038%=      5-min Rain = 0
KCO1 140108Z 06005KT 15/01 A3023 RMK A01 T01530010  RH  038%=      5-min Rain = 0
KCO1 140109Z 05005KT 15/01 A3023 RMK A01 T01530009  RH  038%=      5-min Rain = 0
KCO1 140110Z 05005KT 15/01 A3023 RMK A01 T01520009  RH  038%=      5-min Rain = 0
KCO1 140111Z 05005KT 15/01 A3023 RMK A01 T01510009  RH  038%=      5-min Rain = 0
KCO1 140112Z 05005KT 15/01 A3023 RMK A01 T01510009  RH  038%=      5-min Rain = 0
KCO1 140113Z 06005KT 15/01 A3023 RMK A01 T01510009  RH  038%=      5-min Rain = 0
KCO1 140114Z 07004KT 15/01 A3023 RMK A01 T01500009  RH  038%=      5-min Rain = 0
KCO1 140115Z 07005KT 15/01 A3023 RMK A01 T01490008  RH  038%=      5-min Rain = 0
KCO1 140116Z 08005KT 15/01 A3023 RMK A01 T01490008  RH  038%=      5-min Rain = 0
KCO1 140117Z 08005KT 15/01 A3022 RMK A01 T01500009  RH  038%=      5-min Rain = 0
KCO1 140118Z 07005KT 15/01 A3022 RMK A01 T01510010  RH  038%=      5-min Rain = 0
KCO1 140119Z 08006KT 15/01 A3022 RMK A01 T01520010  RH  038%=      5-min Rain = 0
KCO1 140120Z 08006KT 15/01 A3022 RMK A01 T01520010  RH  038%=      5-min Rain = 0
KCO1 140121Z 08006KT 15/01 A3022 RMK A01 T01520010  RH  038%=      5-min Rain = 0
KCO1 140122Z 08006KT 15/01 A3022 RMK A01 T01520010  RH  038%=      5-min Rain = 0
KCO1 140123Z 08005KT 15/01 A3023 RMK A01 T01520009  RH  038%=      5-min Rain = 0
KCO1 140124Z 08004KT 15/01 A3023 RMK A01 T01520009  RH  038%=      5-min Rain = 0
KCO1 140125Z 08004KT 15/01 A3023 RMK A01 T01520009  RH  038%=      5-min Rain = 0
KCO1 140126Z 09005KT 15/01 A3023 RMK A01 T01520009  RH  038%=      5-min Rain = 0
KCO1 140127Z 09005KT 15/01 A3023 RMK A01 T01510009  RH  038%=      5-min Rain = 0
KCO1 140128Z 09005KT 15/01 A3023 RMK A01 T01500008  RH  038%=      5-min Rain = 0
KCO1 140129Z 09005KT 15/01 A3023 RMK A01 T01490008  RH  038%=      5-min Rain = 0
KCO1 140130Z 10005KT 15/01 A3023 RMK A01 T01490008  RH  038%=      5-min Rain = 0
KCO1 140131Z 10004KT 15/01 A3023 RMK A01 T01490009  RH  039%=      5-min Rain = 0
KCO1 140132Z 09004KT 15/01 A3023 RMK A01 T01480008  RH  039%=      5-min Rain = 0
KCO1 140133Z 08004KT 15/01 A3023 RMK A01 T01470008  RH  039%=      5-min Rain = 0
KCO1 140134Z 08005KT 15/01 A3023 RMK A01 T01460007  RH  039%=      5-min Rain = 0
KCO1 140135Z 07004KT 15/01 A3023 RMK A01 T01450007  RH  039%=      5-min Rain = 0
KCO1 140136Z 07005KT 14/01 A3023 RMK A01 T01440007  RH  039%=      5-min Rain = 0
KCO1 140137Z 08004KT 14/01 A3023 RMK A01 T01440007  RH  039%=      5-min Rain = 0
KCO1 140138Z 09004KT 14/01 A3023 RMK A01 T01430007  RH  040%=      5-min Rain = 0
KCO1 140139Z 10003KT 14/01 A3023 RMK A01 T01420007  RH  040%=      5-min Rain = 0
KCO1 140140Z 10003KT 14/01 A3023 RMK A01 T01420007  RH  040%=      5-min Rain = 0
KCO1 140141Z 09004KT 14/01 A3023 RMK A01 T01420007  RH  040%=      5-min Rain = 0
KCO1 140142Z 09005KT 14/01 A3023 RMK A01 T01410006  RH  040%=      5-min Rain = 0
KCO1 140143Z 09005KT 14/01 A3023 RMK A01 T01400006  RH  040%=      5-min Rain = 0
KCO1 140144Z 09005KT 14/01 A3023 RMK A01 T01390006  RH  040%=      5-min Rain = 0
KCO1 140145Z 09005KT 14/01 A3023 RMK A01 T01380006  RH  040%=      5-min Rain = 0
KCO1 140146Z 09005KT 14/01 A3023 RMK A01 T01370006  RH  041%=      5-min Rain = 0
KCO1 140147Z 09005KT 14/01 A3024 RMK A01 T01370006  RH  041%=      5-min Rain = 0
KCO1 140148Z 10006KT 14/01 A3024 RMK A01 T01360005  RH  041%=      5-min Rain = 0
KCO1 140149Z 10006KT 14/01 A3024 RMK A01 T01360005  RH  041%=      5-min Rain = 0
KCO1 140150Z 09006KT 14/01 A3024 RMK A01 T01360005  RH  041%=      5-min Rain = 0
KCO1 140151Z 09006KT 14/01 A3023 RMK A01 T01360005  RH  041%=      5-min Rain = 0
KCO1 140152Z 10006KT 14/01 A3023 RMK A01 T01360005  RH  041%=      5-min Rain = 0
KCO1 140153Z 10006KT 14/01 A3023 RMK A01 T01360005  RH  041%=      5-min Rain = 0
KCO1 140154Z 10006KT 14/01 A3023 RMK A01 T01360005  RH  041%=      5-min Rain = 0
KCO1 140155Z 10006KT 14/01 A3023 RMK A01 T01360005  RH  041%=      5-min Rain = 0
KCO1 140156Z 10006KT 14/01 A3023 RMK A01 T01360005  RH  041%=      5-min Rain = 0
KCO1 140157Z 11006KT 14/01 A3023 RMK A01 T01350005  RH  041%=      5-min Rain = 0
KCO1 140158Z 10006KT 14/00 A3023 RMK A01 T01350004  RH  041%=      5-min Rain = 0
KCO1 140159Z 10005KT 13/00 A3024 RMK A01 T01340004  RH  041%=      5-min Rain = 0
KCO1 140200Z 10005KT 13/00 A3024 RMK A01 T01330004  RH  041%=      5-min Rain = 0
KCO1 140201Z 10005KT 13/00 A3024 RMK A01 T01320004  RH  041%=      5-min Rain = 0
KCO1 140202Z 10005KT 13/00 A3024 RMK A01 T01320004  RH  041%=      5-min Rain = 0
KCO1 140203Z 10004KT 13/00 A3024 RMK A01 T01310003  RH  041%=      5-min Rain = 0
KCO1 140204Z 11004KT 13/00 A3024 RMK A01 T01310003  RH  042%=      5-min Rain = 0
KCO1 140205Z 11005KT 13/00 A3024 RMK A01 T01310004  RH  042%=      5-min Rain = 0
KCO1 140206Z 10005KT 13/00 A3024 RMK A01 T01300003  RH  042%=      5-min Rain = 0
KCO1 140207Z 10005KT 13/00 A3024 RMK A01 T01300003  RH  042%=      5-min Rain = 0
KCO1 140208Z 10005KT 13/00 A3024 RMK A01 T01280002  RH  042%=      5-min Rain = 0
KCO1 140209Z 10005KT 13/00 A3024 RMK A01 T01280002  RH  042%=      5-min Rain = 0
KCO1 140210Z 10005KT 13/00 A3024 RMK A01 T01270002  RH  042%=      5-min Rain = 0
KCO1 140211Z 10005KT 13/00 A3024 RMK A01 T01260002  RH  042%=      5-min Rain = 0
KCO1 140212Z 10005KT 13/00 A3024 RMK A01 T01260003  RH  043%=      5-min Rain = 0
KCO1 140213Z 10005KT 13/00 A3024 RMK A01 T01250003  RH  043%=      5-min Rain = 0
KCO1 140214Z 10005KT 13/00 A3024 RMK A01 T01250003  RH  043%=      5-min Rain = 0
KCO1 140215Z 11005KT 13/00 A3024 RMK A01 T01250004  RH  043%=      5-min Rain = 0
KCO1 140216Z 11005KT 13/00 A3024 RMK A01 T01250003  RH  043%=      5-min Rain = 0
KCO1 140217Z 11005KT 12/00 A3024 RMK A01 T01240003  RH  043%=      5-min Rain = 0
KCO1 140218Z 11004KT 12/00 A3024 RMK A01 T01240003  RH  043%=      5-min Rain = 0
KCO1 140219Z 11004KT 12/00 A3024 RMK A01 T01230003  RH  043%=      5-min Rain = 0
KCO1 140220Z 11005KT 12/00 A3024 RMK A01 T01230002  RH  043%=      5-min Rain = 0
KCO1 140221Z 11005KT 12/00 A3024 RMK A01 T01220001  RH  044%=      5-min Rain = 0
KCO1 140222Z 10005KT 12/00 A3024 RMK A01 T01210001  RH  044%=      5-min Rain = 0
KCO1 140223Z 10005KT 12/00 A3024 RMK A01 T01200001  RH  044%=      5-min Rain = 0
KCO1 140224Z 11004KT 12/00 A3024 RMK A01 T01200002  RH  044%=      5-min Rain = 0
KCO1 140225Z 12003KT 12/00 A3024 RMK A01 T01200001  RH  044%=      5-min Rain = 0
KCO1 140226Z 12004KT 12/00 A3025 RMK A01 T01190001  RH  044%=      5-min Rain = 0
KCO1 140227Z 11005KT 12/00 A3025 RMK A01 T01190002  RH  044%=      5-min Rain = 0
KCO1 140228Z 11006KT 12/00 A3024 RMK A01 T01190001  RH  044%=      5-min Rain = 0
KCO1 140229Z 10006KT 12/00 A3024 RMK A01 T01180001  RH  044%=      5-min Rain = 0
KCO1 140230Z 10005KT 12/00 A3024 RMK A01 T011800-0  RH  044%=      5-min Rain = 0
KCO1 140231Z 10004KT 12/M00 A3024 RMK A01 T01161001  RH  044%=      5-min Rain = 0
KCO1 140232Z 11003KT 12/M00 A3024 RMK A01 T01161001  RH  045%=      5-min Rain = 0
KCO1 140233Z 10002KT 12/00 A3024 RMK A01 T011500-0  RH  045%=      5-min Rain = 0
KCO1 140234Z 08003KT 12/00 A3024 RMK A01 T01150000  RH  045%=      5-min Rain = 0
KCO1 140235Z 06004KT 12/00 A3024 RMK A01 T01150002  RH  045%=      5-min Rain = 0
KCO1 140236Z 06004KT 12/00 A3024 RMK A01 T01170003  RH  045%=      5-min Rain = 0
KCO1 140237Z 07004KT 12/00 A3024 RMK A01 T01170002  RH  045%=      5-min Rain = 0
KCO1 140238Z 09004KT 12/00 A3024 RMK A01 T01180002  RH  045%=      5-min Rain = 0
KCO1 140239Z 11003KT 12/00 A3024 RMK A01 T01170003  RH  045%=      5-min Rain = 0
KCO1 140240Z 12003KT 12/00 A3025 RMK A01 T01180003  RH  045%=      5-min Rain = 0
KCO1 140241Z 10004KT 12/00 A3025 RMK A01 T01180003  RH  045%=      5-min Rain = 0
KCO1 140242Z 08005KT 12/00 A3024 RMK A01 T01170002  RH  045%=      5-min Rain = 0
KCO1 140243Z 07006KT 12/00 A3024 RMK A01 T01170000  RH  045%=      5-min Rain = 0
KCO1 140244Z 08005KT 12/00 A3024 RMK A01 T01150002  RH  046%=      5-min Rain = 0
KCO1 140245Z 09004KT 12/00 A3024 RMK A01 T01150004  RH  046%=      5-min Rain = 0
KCO1 140246Z 10003KT 12/00 A3025 RMK A01 T01160004  RH  046%=      5-min Rain = 0
KCO1 140247Z 10004KT 12/00 A3024 RMK A01 T01160003  RH  046%=      5-min Rain = 0
KCO1 140248Z 09005KT 12/00 A3024 RMK A01 T01160003  RH  046%=      5-min Rain = 0
KCO1 140249Z 08007KT 12/00 A3024 RMK A01 T01160004  RH  046%=      5-min Rain = 0
KCO1 140250Z 08007KT 12/01 A3024 RMK A01 T01170005  RH  046%=      5-min Rain = 0
KCO1 140251Z 08005KT 12/01 A3024 RMK A01 T01180007  RH  046%=      5-min Rain = 0
KCO1 140252Z 10003KT 12/01 A3024 RMK A01 T01190007  RH  046%=      5-min Rain = 0
KCO1 140253Z 13002KT 12/01 A3025 RMK A01 T01180006  RH  046%=      5-min Rain = 0
KCO1 140254Z 11002KT 12/00 A3025 RMK A01 T01180004  RH  046%=      5-min Rain = 0
KCO1 140255Z 09004KT 12/00 A3025 RMK A01 T01170004  RH  046%=      5-min Rain = 0
KCO1 140256Z 08005KT 12/00 A3025 RMK A01 T01150003  RH  046%=      5-min Rain = 0
KCO1 140257Z 07006KT 11/00 A3025 RMK A01 T01140003  RH  046%=      5-min Rain = 0
KCO1 140258Z 07004KT 11/00 A3025 RMK A01 T01130004  RH  047%=      5-min Rain = 0
KCO1 140259Z 06002KT 11/01 A3025 RMK A01 T01130005  RH  047%=      5-min Rain = 0
KCO1 140300Z 06000KT 11/01 A3025 RMK A01 T01130005  RH  047%=      5-min Rain = 0
KCO1 140301Z 06001KT 11/01 A3025 RMK A01 T01140005  RH  047%=      5-min Rain = 0
KCO1 140302Z 06002KT 12/00 A3025 RMK A01 T01150004  RH  046%=      5-min Rain = 0
KCO1 140303Z 06004KT 12/00 A3025 RMK A01 T01150004  RH  046%=      5-min Rain = 0
KCO1 140304Z 06005KT 12/00 A3024 RMK A01 T01150004  RH  046%=      5-min Rain = 0
KCO1 140305Z 06005KT 11/00 A3024 RMK A01 T01120002  RH  046%=      5-min Rain = 0
KCO1 140306Z 07004KT 11/00 A3025 RMK A01 T01100002  RH  047%=      5-min Rain = 0
KCO1 140307Z 08003KT 11/00 A3025 RMK A01 T01090002  RH  048%=      5-min Rain = 0
KCO1 140308Z 09004KT 11/00 A3025 RMK A01 T01090003  RH  048%=      5-min Rain = 0
KCO1 140309Z 08005KT 11/00 A3025 RMK A01 T01090004  RH  048%=      5-min Rain = 0
KCO1 140310Z 07006KT 11/01 A3024 RMK A01 T01100005  RH  048%=      5-min Rain = 0
KCO1 140311Z 07005KT 11/00 A3024 RMK A01 T01110004  RH  048%=      5-min Rain = 0
KCO1 140312Z 09004KT 11/01 A3025 RMK A01 T01120006  RH  048%=      5-min Rain = 0
KCO1 140313Z 11003KT 11/01 A3025 RMK A01 T01130007  RH  048%=      5-min Rain = 0
KCO1 140314Z 13003KT 11/01 A3025 RMK A01 T01130005  RH  047%=      5-min Rain = 0
KCO1 140315Z 11003KT 11/00 A3025 RMK A01 T01120004  RH  047%=      5-min Rain = 0
KCO1 140316Z 09005KT 11/00 A3025 RMK A01 T01120004  RH  047%=      5-min Rain = 0
KCO1 140317Z 09005KT 11/00 A3025 RMK A01 T01110003  RH  047%=      5-min Rain = 0
KCO1 140318Z 10004KT 11/00 A3025 RMK A01 T01100003  RH  048%=      5-min Rain = 0
KCO1 140319Z 12004KT 11/00 A3025 RMK A01 T01090002  RH  048%=      5-min Rain = 0
KCO1 140320Z 12005KT 11/00 A3025 RMK A01 T01080001  RH  048%=      5-min Rain = 0
KCO1 140321Z 11006KT 11/00 A3025 RMK A01 T01060000  RH  048%=      5-min Rain = 0
KCO1 140322Z 10006KT 11/00 A3025 RMK A01 T01060001  RH  048%=      5-min Rain = 0
KCO1 140323Z 11006KT 11/00 A3025 RMK A01 T01060001  RH  048%=      5-min Rain = 0
KCO1 140324Z 12005KT 11/00 A3025 RMK A01 T01070003  RH  048%=      5-min Rain = 0
KCO1 140325Z 12006KT 11/00 A3025 RMK A01 T01070003  RH  048%=      5-min Rain = 0
KCO1 140326Z 11006KT 11/00 A3025 RMK A01 T01080003  RH  048%=      5-min Rain = 0
KCO1 140327Z 10007KT 11/00 A3025 RMK A01 T01090003  RH  048%=      5-min Rain = 0
KCO1 140328Z 10007KT 11/00 A3025 RMK A01 T01090003  RH  048%=      5-min Rain = 0
KCO1 140329Z 09006KT 11/01 A3025 RMK A01 T01100005  RH  048%=      5-min Rain = 0
KCO1 140330Z 10005KT 11/01 A3025 RMK A01 T01110006  RH  048%=      5-min Rain = 0
KCO1 140331Z 11004KT 11/01 A3025 RMK A01 T01120007  RH  048%=      5-min Rain = 0
KCO1 140332Z 11004KT 11/01 A3025 RMK A01 T01130007  RH  048%=      5-min Rain = 0
KCO1 140333Z 12005KT 11/01 A3025 RMK A01 T01140007  RH  048%=      5-min Rain = 0
KCO1 140334Z 11005KT 11/01 A3025 RMK A01 T01140006  RH  048%=      5-min Rain = 0
KCO1 140335Z 11006KT 11/01 A3025 RMK A01 T01130006  RH  047%=      5-min Rain = 0
KCO1 140336Z 10006KT 11/01 A3025 RMK A01 T01130006  RH  048%=      5-min Rain = 0
KCO1 140337Z 10005KT 11/01 A3025 RMK A01 T01130006  RH  048%=      5-min Rain = 0
KCO1 140338Z 10005KT 11/01 A3025 RMK A01 T01130007  RH  048%=      5-min Rain = 0
KCO1 140339Z 10005KT 11/01 A3025 RMK A01 T01130007  RH  048%=      5-min Rain = 0
KCO1 140340Z 10005KT 11/01 A3025 RMK A01 T01140008  RH  048%=      5-min Rain = 0
KCO1 140341Z 11005KT 11/01 A3025 RMK A01 T01140008  RH  048%=      5-min Rain = 0
KCO1 140342Z 11005KT 11/01 A3025 RMK A01 T01140008  RH  048%=      5-min Rain = 0
KCO1 140343Z 11005KT 11/01 A3024 RMK A01 T01140008  RH  048%=      5-min Rain = 0
KCO1 140344Z 11005KT 11/01 A3024 RMK A01 T01140008  RH  048%=      5-min Rain = 0
KCO1 140345Z 11005KT 11/01 A3025 RMK A01 T01140008  RH  048%=      5-min Rain = 0
KCO1 140346Z 11005KT 11/01 A3025 RMK A01 T01140008  RH  048%=      5-min Rain = 0
KCO1 140347Z 11005KT 11/01 A3025 RMK A01 T01140009  RH  048%=      5-min Rain = 0
KCO1 140348Z 11005KT 11/01 A3025 RMK A01 T01140009  RH  048%=      5-min Rain = 0
KCO1 140349Z 11005KT 12/01 A3025 RMK A01 T01150009  RH  048%=      5-min Rain = 0
KCO1 140350Z 12005KT 12/01 A3025 RMK A01 T01150009  RH  048%=      5-min Rain = 0
KCO1 140351Z 12006KT 12/01 A3025 RMK A01 T01150008  RH  048%=      5-min Rain = 0
KCO1 140352Z 11006KT 11/01 A3025 RMK A01 T01140008  RH  048%=      5-min Rain = 0
KCO1 140353Z 11006KT 11/01 A3025 RMK A01 T01140009  RH  048%=      5-min Rain = 0
KCO1 140354Z 11006KT 11/01 A3025 RMK A01 T01140009  RH  048%=      5-min Rain = 0
KCO1 140355Z 11006KT 11/01 A3025 RMK A01 T01140009  RH  048%=      5-min Rain = 0
KCO1 140356Z 11006KT 11/01 A3025 RMK A01 T01140009  RH  048%=      5-min Rain = 0
KCO1 140357Z 11006KT 11/01 A3025 RMK A01 T01140009  RH  048%=      5-min Rain = 0
KCO1 140358Z 11006KT 11/01 A3025 RMK A01 T01140009  RH  048%=      5-min Rain = 0
KCO1 140359Z 11005KT 11/01 A3025 RMK A01 T01140009  RH  048%=      5-min Rain = 0
KCO1 140400Z 11006KT 11/01 A3025 RMK A01 T01140010  RH  049%=      5-min Rain = 0
KCO1 140401Z 12006KT 11/01 A3025 RMK A01 T01140010  RH  049%=      5-min Rain = 0
KCO1 140402Z 12006KT 11/01 A3024 RMK A01 T01140010  RH  049%=      5-min Rain = 0
KCO1 140403Z 12007KT 11/01 A3024 RMK A01 T01140010  RH  049%=      5-min Rain = 0
KCO1 140404Z 13007KT 11/01 A3024 RMK A01 T01140010  RH  049%=      5-min Rain = 0
KCO1 140405Z 13007KT 11/01 A3025 RMK A01 T01140011  RH  049%=      5-min Rain = 0
KCO1 140406Z 13006KT 11/01 A3025 RMK A01 T01140011  RH  049%=      5-min Rain = 0
KCO1 140407Z 13006KT 11/01 A3025 RMK A01 T01140011  RH  049%=      5-min Rain = 0
KCO1 140408Z 12005KT 11/01 A3025 RMK A01 T01140011  RH  049%=      5-min Rain = 0
KCO1 140409Z 12004KT 11/01 A3025 RMK A01 T01140011  RH  049%=      5-min Rain = 0
KCO1 140410Z 11004KT 11/01 A3025 RMK A01 T01140011  RH  049%=      5-min Rain = 0
KCO1 140411Z 11003KT 11/01 A3025 RMK A01 T01140011  RH  049%=      5-min Rain = 0
KCO1 140412Z 11004KT 12/01 A3025 RMK A01 T01150012  RH  049%=      5-min Rain = 0
KCO1 140413Z 11003KT 12/01 A3025 RMK A01 T01150012  RH  049%=      5-min Rain = 0
KCO1 140414Z 11003KT 12/01 A3025 RMK A01 T01150012  RH  049%=      5-min Rain = 0
KCO1 140415Z 11004KT 12/01 A3025 RMK A01 T01150012  RH  049%=      5-min Rain = 0
KCO1 140416Z 11004KT 12/01 A3025 RMK A01 T01150012  RH  049%=      5-min Rain = 0
KCO1 140417Z 12004KT 12/01 A3025 RMK A01 T01150012  RH  049%=      5-min Rain = 0
KCO1 140418Z 12004KT 12/01 A3025 RMK A01 T01150012  RH  049%=      5-min Rain = 0
KCO1 140419Z 12004KT 12/01 A3025 RMK A01 T01150012  RH  049%=      5-min Rain = 0
KCO1 140420Z 12004KT 12/01 A3025 RMK A01 T01150012  RH  049%=      5-min Rain = 0
KCO1 140421Z 12004KT 12/01 A3025 RMK A01 T01150012  RH  049%=      5-min Rain = 0
KCO1 140422Z 13004KT 11/01 A3025 RMK A01 T01140012  RH  049%=      5-min Rain = 0
KCO1 140423Z 13005KT 11/01 A3025 RMK A01 T01140012  RH  049%=      5-min Rain = 0
KCO1 140424Z 13005KT 11/01 A3025 RMK A01 T01140012  RH  049%=      5-min Rain = 0
KCO1 140425Z 13005KT 11/01 A3025 RMK A01 T01140012  RH  050%=      5-min Rain = 0
KCO1 140426Z 13005KT 11/01 A3025 RMK A01 T01140012  RH  050%=      5-min Rain = 0
KCO1 140427Z 13005KT 11/01 A3025 RMK A01 T01140012  RH  049%=      5-min Rain = 0
KCO1 140428Z 13005KT 11/01 A3025 RMK A01 T01140012  RH  049%=      5-min Rain = 0
KCO1 140429Z 13005KT 11/01 A3025 RMK A01 T01140012  RH  049%=      5-min Rain = 0
KCO1 140430Z 13005KT 11/01 A3025 RMK A01 T01140012  RH  049%=      5-min Rain = 0
KCO1 140431Z 14005KT 11/01 A3025 RMK A01 T01130011  RH  049%=      5-min Rain = 0
KCO1 140432Z 14005KT 11/01 A3025 RMK A01 T01130012  RH  049%=      5-min Rain = 0
KCO1 140433Z 13004KT 11/01 A3025 RMK A01 T01130011  RH  049%=      5-min Rain = 0
KCO1 140434Z 13005KT 11/01 A3025 RMK A01 T01130011  RH  050%=      5-min Rain = 0
KCO1 140435Z 13005KT 11/01 A3025 RMK A01 T01130012  RH  050%=      5-min Rain = 0
KCO1 140436Z 13005KT 11/01 A3025 RMK A01 T01130012  RH  050%=      5-min Rain = 0
KCO1 140437Z 13005KT 11/01 A3024 RMK A01 T01130012  RH  050%=      5-min Rain = 0
KCO1 140438Z 13005KT 11/01 A3024 RMK A01 T01130012  RH  050%=      5-min Rain = 0
KCO1 140439Z 13006KT 11/01 A3024 RMK A01 T01130012  RH  050%=      5-min Rain = 0
KCO1 140440Z 13006KT 11/01 A3024 RMK A01 T01130012  RH  050%=      5-min Rain = 0
KCO1 140441Z 13006KT 11/01 A3024 RMK A01 T01130011  RH  050%=      5-min Rain = 0
KCO1 140442Z 13006KT 11/01 A3024 RMK A01 T01120011  RH  050%=      5-min Rain = 0
KCO1 140443Z 13006KT 11/01 A3024 RMK A01 T01120011  RH  050%=      5-min Rain = 0
KCO1 140444Z 13007KT 11/01 A3024 RMK A01 T01130011  RH  050%=      5-min Rain = 0
KCO1 140445Z 13007KT 11/01 A3024 RMK A01 T01120011  RH  050%=      5-min Rain = 0
KCO1 140446Z 13007KT 11/01 A3024 RMK A01 T01120011  RH  050%=      5-min Rain = 0
KCO1 140447Z 13007KT 11/01 A3024 RMK A01 T01120011  RH  050%=      5-min Rain = 0
KCO1 140448Z 13006KT 11/01 A3024 RMK A01 T01120011  RH  050%=      5-min Rain = 0
KCO1 140449Z 13007KT 11/01 A3024 RMK A01 T01120011  RH  050%=      5-min Rain = 0
KCO1 140450Z 13007KT 11/01 A3024 RMK A01 T01120011  RH  050%=      5-min Rain = 0
KCO1 140451Z 13006KT 11/01 A3024 RMK A01 T01120011  RH  050%=      5-min Rain = 0
KCO1 140452Z 13006KT 11/01 A3024 RMK A01 T01120011  RH  050%=      5-min Rain = 0
KCO1 140453Z 13006KT 11/01 A3024 RMK A01 T01120011  RH  050%=      5-min Rain = 0
KCO1 140454Z 13006KT 11/01 A3024 RMK A01 T01120011  RH  050%=      5-min Rain = 0
KCO1 140455Z 14006KT 11/01 A3024 RMK A01 T01110011  RH  050%=      5-min Rain = 0
KCO1 140456Z 14005KT 11/01 A3024 RMK A01 T01120011  RH  050%=      5-min Rain = 0
KCO1 140457Z 14006KT 11/01 A3024 RMK A01 T01110011  RH  050%=      5-min Rain = 0
KCO1 140458Z 13005KT 11/01 A3024 RMK A01 T01120011  RH  050%=      5-min Rain = 0
KCO1 140459Z 13005KT 11/01 A3024 RMK A01 T01120011  RH  050%=      5-min Rain = 0
KCO1 140500Z 12005KT 11/01 A3024 RMK A01 T01120011  RH  050%=      5-min Rain = 0
KCO1 140501Z 12004KT 11/01 A3024 RMK A01 T01110011  RH  050%=      5-min Rain = 0
KCO1 140502Z 12004KT 11/01 A3024 RMK A01 T01110011  RH  050%=      5-min Rain = 0
KCO1 140503Z 12003KT 11/01 A3024 RMK A01 T01120011  RH  050%=      5-min Rain = 0
KCO1 140504Z 12004KT 11/01 A3024 RMK A01 T01110010  RH  050%=      5-min Rain = 0
KCO1 140505Z 12003KT 11/01 A3024 RMK A01 T01110011  RH  050%=      5-min Rain = 0
KCO1 140506Z 11003KT 11/01 A3024 RMK A01 T01110011  RH  050%=      5-min Rain = 0
KCO1 140507Z 11002KT 11/01 A3024 RMK A01 T01110011  RH  050%=      5-min Rain = 0
KCO1 140508Z 11003KT 11/01 A3024 RMK A01 T01100011  RH  050%=      5-min Rain = 0
KCO1 140509Z 10003KT 11/01 A3024 RMK A01 T01110011  RH  050%=      5-min Rain = 0
KCO1 140510Z 10004KT 11/01 A3024 RMK A01 T01100011  RH  050%=      5-min Rain = 0
KCO1 140511Z 10004KT 11/01 A3024 RMK A01 T01100011  RH  050%=      5-min Rain = 0
KCO1 140512Z 10004KT 11/01 A3024 RMK A01 T01100011  RH  050%=      5-min Rain = 0
KCO1 140513Z 10004KT 11/01 A3024 RMK A01 T01100011  RH  050%=      5-min Rain = 0
KCO1 140514Z 11004KT 11/01 A3024 RMK A01 T01090010  RH  050%=      5-min Rain = 0
KCO1 140515Z 11004KT 11/01 A3024 RMK A01 T01090010  RH  051%=      5-min Rain = 0
KCO1 140516Z 11004KT 11/01 A3024 RMK A01 T01090011  RH  051%=      5-min Rain = 0
KCO1 140517Z 10004KT 11/01 A3024 RMK A01 T01090011  RH  051%=      5-min Rain = 0
KCO1 140518Z 10004KT 11/01 A3024 RMK A01 T01080011  RH  051%=      5-min Rain = 0
KCO1 140519Z 09004KT 11/01 A3024 RMK A01 T01090011  RH  051%=      5-min Rain = 0
KCO1 140520Z 09004KT 11/01 A3024 RMK A01 T01080011  RH  051%=      5-min Rain = 0
KCO1 140521Z 09005KT 11/01 A3024 RMK A01 T01080011  RH  051%=      5-min Rain = 0
KCO1 140522Z 09005KT 11/01 A3024 RMK A01 T01070011  RH  051%=      5-min Rain = 0
KCO1 140523Z 09005KT 11/01 A3024 RMK A01 T01070012  RH  052%=      5-min Rain = 0
KCO1 140524Z 09005KT 11/01 A3024 RMK A01 T01070012  RH  052%=      5-min Rain = 0
KCO1 140525Z 10005KT 11/01 A3024 RMK A01 T01070013  RH  052%=      5-min Rain = 0
KCO1 140526Z 10005KT 11/01 A3024 RMK A01 T01080014  RH  052%=      5-min Rain = 0
KCO1 140527Z 10005KT 11/01 A3024 RMK A01 T01070014  RH  052%=      5-min Rain = 0
KCO1 140528Z 10005KT 11/01 A3024 RMK A01 T01080014  RH  052%=      5-min Rain = 0
KCO1 140529Z 10005KT 11/01 A3024 RMK A01 T01080014  RH  052%=      5-min Rain = 0
KCO1 140530Z 10006KT 11/01 A3024 RMK A01 T01070014  RH  052%=      5-min Rain = 0
KCO1 140531Z 11006KT 11/01 A3024 RMK A01 T01070014  RH  052%=      5-min Rain = 0
KCO1 140532Z 10006KT 11/01 A3024 RMK A01 T01080014  RH  052%=      5-min Rain = 0
KCO1 140533Z 10006KT 11/01 A3024 RMK A01 T01080014  RH  052%=      5-min Rain = 0
KCO1 140534Z 11005KT 11/01 A3024 RMK A01 T01080014  RH  052%=      5-min Rain = 0
KCO1 140535Z 10005KT 11/02 A3024 RMK A01 T01080015  RH  052%=      5-min Rain = 0
KCO1 140536Z 10004KT 11/01 A3024 RMK A01 T01080014  RH  052%=      5-min Rain = 0
KCO1 140537Z 10004KT 11/02 A3024 RMK A01 T01080015  RH  052%=      5-min Rain = 0
KCO1 140538Z 09003KT 11/02 A3024 RMK A01 T01080015  RH  052%=      5-min Rain = 0
KCO1 140539Z 08003KT 11/02 A3024 RMK A01 T01080015  RH  052%=      5-min Rain = 0
KCO1 140540Z 07003KT 11/02 A3024 RMK A01 T01080015  RH  053%=      5-min Rain = 0
KCO1 140541Z 07003KT 11/02 A3024 RMK A01 T01080015  RH  053%=      5-min Rain = 0
KCO1 140542Z 07004KT 11/02 A3024 RMK A01 T01080016  RH  053%=      5-min Rain = 0
KCO1 140543Z 07004KT 11/02 A3024 RMK A01 T01080015  RH  053%=      5-min Rain = 0
KCO1 140544Z 09004KT 11/02 A3024 RMK A01 T01070015  RH  053%=      5-min Rain = 0
KCO1 140545Z 10004KT 11/02 A3024 RMK A01 T01080016  RH  053%=      5-min Rain = 0
KCO1 140546Z 11004KT 11/02 A3024 RMK A01 T01070016  RH  053%=      5-min Rain = 0
KCO1 140547Z 11005KT 11/02 A3024 RMK A01 T01070016  RH  053%=      5-min Rain = 0
KCO1 140548Z 11005KT 11/02 A3024 RMK A01 T01070016  RH  053%=      5-min Rain = 0
KCO1 140549Z 11004KT 11/02 A3024 RMK A01 T01070015  RH  053%=      5-min Rain = 0
KCO1 140550Z 11004KT 11/02 A3024 RMK A01 T01070016  RH  053%=      5-min Rain = 0
KCO1 140551Z 11003KT 11/02 A3024 RMK A01 T01070015  RH  053%=      5-min Rain = 0
KCO1 140552Z 10002KT 11/02 A3024 RMK A01 T01060015  RH  053%=      5-min Rain = 0
KCO1 140553Z 07002KT 11/02 A3024 RMK A01 T01060016  RH  053%=      5-min Rain = 0
KCO1 140554Z 06002KT 11/02 A3025 RMK A01 T01060016  RH  053%=      5-min Rain = 0
KCO1 140555Z 05002KT 11/02 A3025 RMK A01 T01070016  RH  053%=      5-min Rain = 0
KCO1 140556Z 05002KT 11/02 A3025 RMK A01 T01060015  RH  053%=      5-min Rain = 0
KCO1 140557Z 06002KT 11/02 A3025 RMK A01 T01060016  RH  054%=      5-min Rain = 0
KCO1 140558Z 07002KT 11/02 A3024 RMK A01 T01060016  RH  054%=      5-min Rain = 0
KCO1 140559Z 08003KT 11/02 A3024 RMK A01 T01060016  RH  054%=      5-min Rain = 0

Page generated in 0.1232 seconds.